<?xml version="1.0" encoding="UTF-8" standalone="no" ?>
<gpx xmlns="http://www.topografix.com/GPX/1/1" xmlns:xsi="http://www.w3.org/2001/XMLSchema-instance" xsi:schemaLocation="http://www.topografix.com/GPX/1/1 http://www.topografix.com/GPX/1/1/gpx.xsd" version="1.1" creator="VisuGPX - https://www.visugpx.com">
  <metadata>
    <name>Tour de la Bresse V2 J1</name>
  </metadata>
  <trk>
    <name><![CDATA[12675622-Tour de la Bresse V2]]></name>
    <trkseg>
      <trkpt lat="48.02968" lon="6.91117">
        <ele>950</ele>
        <time>2021-08-19T12:14:10Z</time>
      </trkpt>
      <trkpt lat="48.03056" lon="6.91226">
        <ele>956</ele>
        <time>2021-08-19T12:14:37Z</time>
      </trkpt>
      <trkpt lat="48.03101" lon="6.91224">
        <ele>964</ele>
        <time>2021-08-19T12:14:47Z</time>
      </trkpt>
      <trkpt lat="48.03229" lon="6.91311">
        <ele>973</ele>
        <time>2021-08-19T12:15:20Z</time>
      </trkpt>
      <trkpt lat="48.03251" lon="6.91303">
        <ele>979</ele>
        <time>2021-08-19T12:15:25Z</time>
      </trkpt>
      <trkpt lat="48.03187" lon="6.91215">
        <ele>981</ele>
        <time>2021-08-19T12:15:46Z</time>
      </trkpt>
      <trkpt lat="48.03148" lon="6.91132">
        <ele>983</ele>
        <time>2021-08-19T12:16:01Z</time>
      </trkpt>
      <trkpt lat="48.03115" lon="6.91004">
        <ele>987</ele>
        <time>2021-08-19T12:16:23Z</time>
      </trkpt>
      <trkpt lat="48.03121" lon="6.90938">
        <ele>990</ele>
        <time>2021-08-19T12:16:33Z</time>
      </trkpt>
      <trkpt lat="48.03094" lon="6.9078">
        <ele>987</ele>
        <time>2021-08-19T12:16:59Z</time>
      </trkpt>
      <trkpt lat="48.03117" lon="6.90812">
        <ele>993</ele>
        <time>2021-08-19T12:17:06Z</time>
      </trkpt>
      <trkpt lat="48.03192" lon="6.90978">
        <ele>1004</ele>
        <time>2021-08-19T12:17:37Z</time>
      </trkpt>
      <trkpt lat="48.03299" lon="6.9106">
        <ele>1024</ele>
        <time>2021-08-19T12:18:05Z</time>
      </trkpt>
      <trkpt lat="48.03444" lon="6.91119">
        <ele>1039</ele>
        <time>2021-08-19T12:18:41Z</time>
      </trkpt>
      <trkpt lat="48.03514" lon="6.91119">
        <ele>1051</ele>
        <time>2021-08-19T12:18:57Z</time>
      </trkpt>
      <trkpt lat="48.03487" lon="6.91099">
        <ele>1051</ele>
        <time>2021-08-19T12:19:04Z</time>
      </trkpt>
      <trkpt lat="48.03466" lon="6.91046">
        <ele>1052</ele>
        <time>2021-08-19T12:19:14Z</time>
      </trkpt>
      <trkpt lat="48.03426" lon="6.90997">
        <ele>1053</ele>
        <time>2021-08-19T12:19:26Z</time>
      </trkpt>
      <trkpt lat="48.03416" lon="6.90942">
        <ele>1054</ele>
        <time>2021-08-19T12:19:35Z</time>
      </trkpt>
      <trkpt lat="48.03395" lon="6.90856">
        <ele>1054</ele>
        <time>2021-08-19T12:19:49Z</time>
      </trkpt>
      <trkpt lat="48.03383" lon="6.90765">
        <ele>1055</ele>
        <time>2021-08-19T12:20:03Z</time>
      </trkpt>
      <trkpt lat="48.03355" lon="6.90611">
        <ele>1065</ele>
        <time>2021-08-19T12:20:28Z</time>
      </trkpt>
      <trkpt lat="48.03377" lon="6.90469">
        <ele>1077</ele>
        <time>2021-08-19T12:20:51Z</time>
      </trkpt>
      <trkpt lat="48.03367" lon="6.90364">
        <ele>1075</ele>
        <time>2021-08-19T12:21:08Z</time>
      </trkpt>
      <trkpt lat="48.03373" lon="6.90323">
        <ele>1076</ele>
        <time>2021-08-19T12:21:14Z</time>
      </trkpt>
      <trkpt lat="48.03396" lon="6.90272">
        <ele>1077</ele>
        <time>2021-08-19T12:21:24Z</time>
      </trkpt>
      <trkpt lat="48.03405" lon="6.9021">
        <ele>1073</ele>
        <time>2021-08-19T12:21:34Z</time>
      </trkpt>
      <trkpt lat="48.03438" lon="6.90104">
        <ele>1067</ele>
        <time>2021-08-19T12:21:52Z</time>
      </trkpt>
      <trkpt lat="48.03454" lon="6.9002">
        <ele>1059</ele>
        <time>2021-08-19T12:22:06Z</time>
      </trkpt>
      <trkpt lat="48.03461" lon="6.89956">
        <ele>1056</ele>
        <time>2021-08-19T12:22:16Z</time>
      </trkpt>
      <trkpt lat="48.03477" lon="6.8994">
        <ele>1055</ele>
        <time>2021-08-19T12:22:20Z</time>
      </trkpt>
      <trkpt lat="48.03494" lon="6.89878">
        <ele>1054</ele>
        <time>2021-08-19T12:22:31Z</time>
      </trkpt>
      <trkpt lat="48.03477" lon="6.89841">
        <ele>1053</ele>
        <time>2021-08-19T12:22:38Z</time>
      </trkpt>
      <trkpt lat="48.03451" lon="6.89852">
        <ele>1054</ele>
        <time>2021-08-19T12:22:44Z</time>
      </trkpt>
      <trkpt lat="48.03426" lon="6.89848">
        <ele>1054</ele>
        <time>2021-08-19T12:22:50Z</time>
      </trkpt>
      <trkpt lat="48.03395" lon="6.89831">
        <ele>1052</ele>
        <time>2021-08-19T12:22:58Z</time>
      </trkpt>
      <trkpt lat="48.03321" lon="6.89768">
        <ele>1047</ele>
        <time>2021-08-19T12:23:17Z</time>
      </trkpt>
      <trkpt lat="48.0327" lon="6.8969">
        <ele>1040</ele>
        <time>2021-08-19T12:23:34Z</time>
      </trkpt>
      <trkpt lat="48.03221" lon="6.8967">
        <ele>1033</ele>
        <time>2021-08-19T12:23:46Z</time>
      </trkpt>
      <trkpt lat="48.03094" lon="6.89499">
        <ele>1021</ele>
        <time>2021-08-19T12:24:26Z</time>
      </trkpt>
      <trkpt lat="48.03026" lon="6.89355">
        <ele>1013</ele>
        <time>2021-08-19T12:24:54Z</time>
      </trkpt>
      <trkpt lat="48.03011" lon="6.89338">
        <ele>1012</ele>
        <time>2021-08-19T12:24:58Z</time>
      </trkpt>
      <trkpt lat="48.02987" lon="6.89319">
        <ele>1008</ele>
        <time>2021-08-19T12:25:04Z</time>
      </trkpt>
      <trkpt lat="48.02951" lon="6.89304">
        <ele>1001</ele>
        <time>2021-08-19T12:25:13Z</time>
      </trkpt>
      <trkpt lat="48.02923" lon="6.89285">
        <ele>997</ele>
        <time>2021-08-19T12:25:20Z</time>
      </trkpt>
      <trkpt lat="48.02854" lon="6.89178">
        <ele>987</ele>
        <time>2021-08-19T12:25:44Z</time>
      </trkpt>
      <trkpt lat="48.02778" lon="6.88994">
        <ele>973</ele>
        <time>2021-08-19T12:26:17Z</time>
      </trkpt>
      <trkpt lat="48.02741" lon="6.88869">
        <ele>970</ele>
        <time>2021-08-19T12:26:39Z</time>
      </trkpt>
      <trkpt lat="48.02727" lon="6.88804">
        <ele>970</ele>
        <time>2021-08-19T12:26:49Z</time>
      </trkpt>
      <trkpt lat="48.02702" lon="6.88767">
        <ele>965</ele>
        <time>2021-08-19T12:26:58Z</time>
      </trkpt>
      <trkpt lat="48.02682" lon="6.88727">
        <ele>962</ele>
        <time>2021-08-19T12:27:05Z</time>
      </trkpt>
      <trkpt lat="48.02664" lon="6.88717">
        <ele>957</ele>
        <time>2021-08-19T12:27:10Z</time>
      </trkpt>
      <trkpt lat="48.02651" lon="6.88703">
        <ele>956</ele>
        <time>2021-08-19T12:27:14Z</time>
      </trkpt>
      <trkpt lat="48.02639" lon="6.88681">
        <ele>956</ele>
        <time>2021-08-19T12:27:18Z</time>
      </trkpt>
      <trkpt lat="48.02608" lon="6.88671">
        <ele>951</ele>
        <time>2021-08-19T12:27:25Z</time>
      </trkpt>
      <trkpt lat="48.02603" lon="6.88666">
        <ele>951</ele>
        <time>2021-08-19T12:27:27Z</time>
      </trkpt>
      <trkpt lat="48.02595" lon="6.88629">
        <ele>950</ele>
        <time>2021-08-19T12:27:33Z</time>
      </trkpt>
      <trkpt lat="48.02594" lon="6.88593">
        <ele>951</ele>
        <time>2021-08-19T12:27:39Z</time>
      </trkpt>
      <trkpt lat="48.02559" lon="6.88492">
        <ele>956</ele>
        <time>2021-08-19T12:27:56Z</time>
      </trkpt>
      <trkpt lat="48.0252" lon="6.88445">
        <ele>958</ele>
        <time>2021-08-19T12:28:08Z</time>
      </trkpt>
      <trkpt lat="48.02498" lon="6.88439">
        <ele>957</ele>
        <time>2021-08-19T12:28:13Z</time>
      </trkpt>
      <trkpt lat="48.02439" lon="6.88448">
        <ele>955</ele>
        <time>2021-08-19T12:28:27Z</time>
      </trkpt>
      <trkpt lat="48.02385" lon="6.88394">
        <ele>954</ele>
        <time>2021-08-19T12:28:42Z</time>
      </trkpt>
      <trkpt lat="48.02346" lon="6.88395">
        <ele>955</ele>
        <time>2021-08-19T12:28:51Z</time>
      </trkpt>
      <trkpt lat="48.02303" lon="6.88419">
        <ele>949</ele>
        <time>2021-08-19T12:29:02Z</time>
      </trkpt>
      <trkpt lat="48.02297" lon="6.884">
        <ele>951</ele>
        <time>2021-08-19T12:29:05Z</time>
      </trkpt>
      <trkpt lat="48.02261" lon="6.88365">
        <ele>956</ele>
        <time>2021-08-19T12:29:15Z</time>
      </trkpt>
      <trkpt lat="48.0216" lon="6.88256">
        <ele>970</ele>
        <time>2021-08-19T12:29:45Z</time>
      </trkpt>
      <trkpt lat="48.02094" lon="6.88227">
        <ele>967</ele>
        <time>2021-08-19T12:30:01Z</time>
      </trkpt>
      <trkpt lat="48.02046" lon="6.88192">
        <ele>964</ele>
        <time>2021-08-19T12:30:13Z</time>
      </trkpt>
      <trkpt lat="48.01978" lon="6.88077">
        <ele>972</ele>
        <time>2021-08-19T12:30:37Z</time>
      </trkpt>
      <trkpt lat="48.01966" lon="6.88037">
        <ele>975</ele>
        <time>2021-08-19T12:30:44Z</time>
      </trkpt>
      <trkpt lat="48.01942" lon="6.87996">
        <ele>975</ele>
        <time>2021-08-19T12:30:52Z</time>
      </trkpt>
      <trkpt lat="48.01882" lon="6.87917">
        <ele>968</ele>
        <time>2021-08-19T12:31:11Z</time>
      </trkpt>
      <trkpt lat="48.01835" lon="6.87772">
        <ele>970</ele>
        <time>2021-08-19T12:31:36Z</time>
      </trkpt>
      <trkpt lat="48.01818" lon="6.87451">
        <ele>991</ele>
        <time>2021-08-19T12:32:27Z</time>
      </trkpt>
      <trkpt lat="48.01806" lon="6.87408">
        <ele>988</ele>
        <time>2021-08-19T12:32:34Z</time>
      </trkpt>
      <trkpt lat="48.01778" lon="6.87344">
        <ele>983</ele>
        <time>2021-08-19T12:32:46Z</time>
      </trkpt>
      <trkpt lat="48.01758" lon="6.87322">
        <ele>978</ele>
        <time>2021-08-19T12:32:52Z</time>
      </trkpt>
      <trkpt lat="48.01756" lon="6.87288">
        <ele>978</ele>
        <time>2021-08-19T12:32:57Z</time>
      </trkpt>
      <trkpt lat="48.01747" lon="6.87258">
        <ele>976</ele>
        <time>2021-08-19T12:33:02Z</time>
      </trkpt>
      <trkpt lat="48.01744" lon="6.87199">
        <ele>976</ele>
        <time>2021-08-19T12:33:11Z</time>
      </trkpt>
      <trkpt lat="48.0171" lon="6.87143">
        <ele>971</ele>
        <time>2021-08-19T12:33:23Z</time>
      </trkpt>
      <trkpt lat="48.01665" lon="6.87085">
        <ele>967</ele>
        <time>2021-08-19T12:33:37Z</time>
      </trkpt>
      <trkpt lat="48.01655" lon="6.87055">
        <ele>968</ele>
        <time>2021-08-19T12:33:42Z</time>
      </trkpt>
      <trkpt lat="48.01652" lon="6.87004">
        <ele>969</ele>
        <time>2021-08-19T12:33:50Z</time>
      </trkpt>
      <trkpt lat="48.01672" lon="6.86887">
        <ele>964</ele>
        <time>2021-08-19T12:34:09Z</time>
      </trkpt>
      <trkpt lat="48.01607" lon="6.8686">
        <ele>967</ele>
        <time>2021-08-19T12:34:25Z</time>
      </trkpt>
      <trkpt lat="48.01566" lon="6.86877">
        <ele>967</ele>
        <time>2021-08-19T12:34:35Z</time>
      </trkpt>
      <trkpt lat="48.01549" lon="6.86864">
        <ele>964</ele>
        <time>2021-08-19T12:34:39Z</time>
      </trkpt>
      <trkpt lat="48.01531" lon="6.86827">
        <ele>960</ele>
        <time>2021-08-19T12:34:46Z</time>
      </trkpt>
      <trkpt lat="48.01515" lon="6.8676">
        <ele>959</ele>
        <time>2021-08-19T12:34:57Z</time>
      </trkpt>
      <trkpt lat="48.01521" lon="6.8667">
        <ele>960</ele>
        <time>2021-08-19T12:35:12Z</time>
      </trkpt>
      <trkpt lat="48.01505" lon="6.86541">
        <ele>967</ele>
        <time>2021-08-19T12:35:32Z</time>
      </trkpt>
      <trkpt lat="48.01495" lon="6.8653">
        <ele>968</ele>
        <time>2021-08-19T12:35:35Z</time>
      </trkpt>
      <trkpt lat="48.01477" lon="6.86524">
        <ele>965</ele>
        <time>2021-08-19T12:35:39Z</time>
      </trkpt>
      <trkpt lat="48.01473" lon="6.86495">
        <ele>967</ele>
        <time>2021-08-19T12:35:44Z</time>
      </trkpt>
      <trkpt lat="48.01472" lon="6.86433">
        <ele>972</ele>
        <time>2021-08-19T12:35:54Z</time>
      </trkpt>
      <trkpt lat="48.01517" lon="6.86363">
        <ele>979</ele>
        <time>2021-08-19T12:36:09Z</time>
      </trkpt>
      <trkpt lat="48.0151" lon="6.86346">
        <ele>982</ele>
        <time>2021-08-19T12:36:12Z</time>
      </trkpt>
      <trkpt lat="48.0147" lon="6.8635">
        <ele>983</ele>
        <time>2021-08-19T12:36:21Z</time>
      </trkpt>
      <trkpt lat="48.01435" lon="6.8637">
        <ele>979</ele>
        <time>2021-08-19T12:36:30Z</time>
      </trkpt>
      <trkpt lat="48.01415" lon="6.86363">
        <ele>980</ele>
        <time>2021-08-19T12:36:35Z</time>
      </trkpt>
      <trkpt lat="48.01388" lon="6.86305">
        <ele>985</ele>
        <time>2021-08-19T12:36:46Z</time>
      </trkpt>
      <trkpt lat="48.01363" lon="6.86278">
        <ele>986</ele>
        <time>2021-08-19T12:36:53Z</time>
      </trkpt>
      <trkpt lat="48.01342" lon="6.86234">
        <ele>992</ele>
        <time>2021-08-19T12:37:01Z</time>
      </trkpt>
      <trkpt lat="48.01308" lon="6.86194">
        <ele>992</ele>
        <time>2021-08-19T12:37:12Z</time>
      </trkpt>
      <trkpt lat="48.01286" lon="6.86136">
        <ele>996</ele>
        <time>2021-08-19T12:37:22Z</time>
      </trkpt>
      <trkpt lat="48.01233" lon="6.86134">
        <ele>990</ele>
        <time>2021-08-19T12:37:34Z</time>
      </trkpt>
      <trkpt lat="48.01151" lon="6.86092">
        <ele>986</ele>
        <time>2021-08-19T12:37:55Z</time>
      </trkpt>
      <trkpt lat="48.01086" lon="6.86087">
        <ele>981</ele>
        <time>2021-08-19T12:38:10Z</time>
      </trkpt>
      <trkpt lat="48.01055" lon="6.86054">
        <ele>979</ele>
        <time>2021-08-19T12:38:19Z</time>
      </trkpt>
      <trkpt lat="48.0104" lon="6.86004">
        <ele>981</ele>
        <time>2021-08-19T12:38:27Z</time>
      </trkpt>
      <trkpt lat="48.01026" lon="6.85981">
        <ele>982</ele>
        <time>2021-08-19T12:38:32Z</time>
      </trkpt>
      <trkpt lat="48.01005" lon="6.85932">
        <ele>985</ele>
        <time>2021-08-19T12:38:41Z</time>
      </trkpt>
      <trkpt lat="48.01003" lon="6.85899">
        <ele>988</ele>
        <time>2021-08-19T12:38:46Z</time>
      </trkpt>
      <trkpt lat="48.01013" lon="6.85846">
        <ele>994</ele>
        <time>2021-08-19T12:38:55Z</time>
      </trkpt>
      <trkpt lat="48.01009" lon="6.8579">
        <ele>996</ele>
        <time>2021-08-19T12:39:04Z</time>
      </trkpt>
      <trkpt lat="48.01017" lon="6.85758">
        <ele>1000</ele>
        <time>2021-08-19T12:39:09Z</time>
      </trkpt>
      <trkpt lat="48.01002" lon="6.8564">
        <ele>1000</ele>
        <time>2021-08-19T12:39:28Z</time>
      </trkpt>
      <trkpt lat="48.01007" lon="6.85582">
        <ele>1002</ele>
        <time>2021-08-19T12:39:37Z</time>
      </trkpt>
      <trkpt lat="48.01026" lon="6.85522">
        <ele>1005</ele>
        <time>2021-08-19T12:39:47Z</time>
      </trkpt>
      <trkpt lat="48.01042" lon="6.85413">
        <ele>1004</ele>
        <time>2021-08-19T12:40:05Z</time>
      </trkpt>
      <trkpt lat="48.01078" lon="6.85371">
        <ele>1009</ele>
        <time>2021-08-19T12:40:16Z</time>
      </trkpt>
      <trkpt lat="48.01101" lon="6.85271">
        <ele>1008</ele>
        <time>2021-08-19T12:40:32Z</time>
      </trkpt>
      <trkpt lat="48.01119" lon="6.85234">
        <ele>1010</ele>
        <time>2021-08-19T12:40:39Z</time>
      </trkpt>
      <trkpt lat="48.01128" lon="6.85193">
        <ele>1008</ele>
        <time>2021-08-19T12:40:46Z</time>
      </trkpt>
      <trkpt lat="48.01139" lon="6.85167">
        <ele>1008</ele>
        <time>2021-08-19T12:40:51Z</time>
      </trkpt>
      <trkpt lat="48.01153" lon="6.85158">
        <ele>1011</ele>
        <time>2021-08-19T12:40:54Z</time>
      </trkpt>
      <trkpt lat="48.01164" lon="6.85146">
        <ele>1013</ele>
        <time>2021-08-19T12:40:57Z</time>
      </trkpt>
      <trkpt lat="48.01187" lon="6.85147">
        <ele>1014</ele>
        <time>2021-08-19T12:41:03Z</time>
      </trkpt>
      <trkpt lat="48.01205" lon="6.85154">
        <ele>1016</ele>
        <time>2021-08-19T12:41:07Z</time>
      </trkpt>
      <trkpt lat="48.01228" lon="6.85176">
        <ele>1019</ele>
        <time>2021-08-19T12:41:14Z</time>
      </trkpt>
      <trkpt lat="48.01248" lon="6.85169">
        <ele>1020</ele>
        <time>2021-08-19T12:41:18Z</time>
      </trkpt>
      <trkpt lat="48.01273" lon="6.8514">
        <ele>1018</ele>
        <time>2021-08-19T12:41:26Z</time>
      </trkpt>
      <trkpt lat="48.01278" lon="6.85116">
        <ele>1016</ele>
        <time>2021-08-19T12:41:30Z</time>
      </trkpt>
      <trkpt lat="48.01291" lon="6.85083">
        <ele>1012</ele>
        <time>2021-08-19T12:41:36Z</time>
      </trkpt>
      <trkpt lat="48.01289" lon="6.85058">
        <ele>1007</ele>
        <time>2021-08-19T12:41:40Z</time>
      </trkpt>
      <trkpt lat="48.01295" lon="6.8503">
        <ele>1002</ele>
        <time>2021-08-19T12:41:44Z</time>
      </trkpt>
      <trkpt lat="48.01281" lon="6.85008">
        <ele>998</ele>
        <time>2021-08-19T12:41:49Z</time>
      </trkpt>
      <trkpt lat="48.01254" lon="6.85002">
        <ele>997</ele>
        <time>2021-08-19T12:41:55Z</time>
      </trkpt>
      <trkpt lat="48.01228" lon="6.85009">
        <ele>1001</ele>
        <time>2021-08-19T12:42:01Z</time>
      </trkpt>
      <trkpt lat="48.01217" lon="6.85007">
        <ele>1001</ele>
        <time>2021-08-19T12:42:04Z</time>
      </trkpt>
      <trkpt lat="48.01222" lon="6.84976">
        <ele>997</ele>
        <time>2021-08-19T12:42:09Z</time>
      </trkpt>
      <trkpt lat="48.01202" lon="6.8488">
        <ele>989</ele>
        <time>2021-08-19T12:42:25Z</time>
      </trkpt>
      <trkpt lat="48.01182" lon="6.84853">
        <ele>990</ele>
        <time>2021-08-19T12:42:31Z</time>
      </trkpt>
      <trkpt lat="48.01152" lon="6.84826">
        <ele>988</ele>
        <time>2021-08-19T12:42:39Z</time>
      </trkpt>
      <trkpt lat="48.01126" lon="6.84779">
        <ele>982</ele>
        <time>2021-08-19T12:42:49Z</time>
      </trkpt>
      <trkpt lat="48.0111" lon="6.84723">
        <ele>986</ele>
        <time>2021-08-19T12:42:58Z</time>
      </trkpt>
      <trkpt lat="48.01063" lon="6.8469">
        <ele>987</ele>
        <time>2021-08-19T12:43:10Z</time>
      </trkpt>
      <trkpt lat="48.01046" lon="6.84671">
        <ele>987</ele>
        <time>2021-08-19T12:43:15Z</time>
      </trkpt>
      <trkpt lat="48.01038" lon="6.84651">
        <ele>989</ele>
        <time>2021-08-19T12:43:19Z</time>
      </trkpt>
      <trkpt lat="48.01025" lon="6.84577">
        <ele>997</ele>
        <time>2021-08-19T12:43:31Z</time>
      </trkpt>
      <trkpt lat="48.01007" lon="6.84535">
        <ele>999</ele>
        <time>2021-08-19T12:43:39Z</time>
      </trkpt>
      <trkpt lat="48.01004" lon="6.84482">
        <ele>1007</ele>
        <time>2021-08-19T12:43:47Z</time>
      </trkpt>
      <trkpt lat="48.00989" lon="6.84447">
        <ele>1011</ele>
        <time>2021-08-19T12:43:54Z</time>
      </trkpt>
      <trkpt lat="48.00986" lon="6.84426">
        <ele>1014</ele>
        <time>2021-08-19T12:43:57Z</time>
      </trkpt>
      <trkpt lat="48.0099" lon="6.84385">
        <ele>1016</ele>
        <time>2021-08-19T12:44:03Z</time>
      </trkpt>
      <trkpt lat="48.00986" lon="6.84362">
        <ele>1018</ele>
        <time>2021-08-19T12:44:07Z</time>
      </trkpt>
      <trkpt lat="48.00974" lon="6.84344">
        <ele>1019</ele>
        <time>2021-08-19T12:44:11Z</time>
      </trkpt>
      <trkpt lat="48.00944" lon="6.8433">
        <ele>1021</ele>
        <time>2021-08-19T12:44:18Z</time>
      </trkpt>
      <trkpt lat="48.00918" lon="6.84342">
        <ele>1022</ele>
        <time>2021-08-19T12:44:25Z</time>
      </trkpt>
      <trkpt lat="48.00893" lon="6.84347">
        <ele>1024</ele>
        <time>2021-08-19T12:44:31Z</time>
      </trkpt>
      <trkpt lat="48.00875" lon="6.8436">
        <ele>1024</ele>
        <time>2021-08-19T12:44:35Z</time>
      </trkpt>
      <trkpt lat="48.00858" lon="6.84363">
        <ele>1025</ele>
        <time>2021-08-19T12:44:39Z</time>
      </trkpt>
      <trkpt lat="48.00847" lon="6.84348">
        <ele>1028</ele>
        <time>2021-08-19T12:44:43Z</time>
      </trkpt>
      <trkpt lat="48.00851" lon="6.84272">
        <ele>1035</ele>
        <time>2021-08-19T12:44:55Z</time>
      </trkpt>
      <trkpt lat="48.00859" lon="6.84245">
        <ele>1036</ele>
        <time>2021-08-19T12:44:59Z</time>
      </trkpt>
      <trkpt lat="48.00869" lon="6.84166">
        <ele>1043</ele>
        <time>2021-08-19T12:45:12Z</time>
      </trkpt>
      <trkpt lat="48.00884" lon="6.8413">
        <ele>1043</ele>
        <time>2021-08-19T12:45:18Z</time>
      </trkpt>
      <trkpt lat="48.00883" lon="6.8408">
        <ele>1047</ele>
        <time>2021-08-19T12:45:26Z</time>
      </trkpt>
      <trkpt lat="48.00829" lon="6.83977">
        <ele>1052</ele>
        <time>2021-08-19T12:45:47Z</time>
      </trkpt>
      <trkpt lat="48.00806" lon="6.83924">
        <ele>1051</ele>
        <time>2021-08-19T12:45:57Z</time>
      </trkpt>
      <trkpt lat="48.00777" lon="6.83899">
        <ele>1051</ele>
        <time>2021-08-19T12:46:04Z</time>
      </trkpt>
      <trkpt lat="48.00668" lon="6.83866">
        <ele>1052</ele>
        <time>2021-08-19T12:46:30Z</time>
      </trkpt>
      <trkpt lat="48.00597" lon="6.8383">
        <ele>1049</ele>
        <time>2021-08-19T12:46:48Z</time>
      </trkpt>
      <trkpt lat="48.00592" lon="6.83759">
        <ele>1047</ele>
        <time>2021-08-19T12:46:59Z</time>
      </trkpt>
      <trkpt lat="48.00583" lon="6.83732">
        <ele>1045</ele>
        <time>2021-08-19T12:47:04Z</time>
      </trkpt>
      <trkpt lat="48.00577" lon="6.83721">
        <ele>1044</ele>
        <time>2021-08-19T12:47:06Z</time>
      </trkpt>
      <trkpt lat="48.00554" lon="6.83715">
        <ele>1040</ele>
        <time>2021-08-19T12:47:11Z</time>
      </trkpt>
      <trkpt lat="48.00548" lon="6.83704">
        <ele>1039</ele>
        <time>2021-08-19T12:47:14Z</time>
      </trkpt>
      <trkpt lat="48.00532" lon="6.83632">
        <ele>1032</ele>
        <time>2021-08-19T12:47:26Z</time>
      </trkpt>
      <trkpt lat="48.00517" lon="6.83636">
        <ele>1030</ele>
        <time>2021-08-19T12:47:29Z</time>
      </trkpt>
      <trkpt lat="48.00498" lon="6.83664">
        <ele>1028</ele>
        <time>2021-08-19T12:47:35Z</time>
      </trkpt>
      <trkpt lat="48.00473" lon="6.83685">
        <ele>1025</ele>
        <time>2021-08-19T12:47:42Z</time>
      </trkpt>
      <trkpt lat="48.00446" lon="6.83699">
        <ele>1021</ele>
        <time>2021-08-19T12:47:49Z</time>
      </trkpt>
      <trkpt lat="48.00432" lon="6.83683">
        <ele>1017</ele>
        <time>2021-08-19T12:47:53Z</time>
      </trkpt>
      <trkpt lat="48.00427" lon="6.8367">
        <ele>1016</ele>
        <time>2021-08-19T12:47:55Z</time>
      </trkpt>
      <trkpt lat="48.00426" lon="6.83658">
        <ele>1015</ele>
        <time>2021-08-19T12:47:57Z</time>
      </trkpt>
      <trkpt lat="48.00425" lon="6.83573">
        <ele>1013</ele>
        <time>2021-08-19T12:48:10Z</time>
      </trkpt>
      <trkpt lat="48.00419" lon="6.83546">
        <ele>1013</ele>
        <time>2021-08-19T12:48:15Z</time>
      </trkpt>
      <trkpt lat="48.00399" lon="6.83541">
        <ele>1012</ele>
        <time>2021-08-19T12:48:19Z</time>
      </trkpt>
      <trkpt lat="48.00394" lon="6.83531">
        <ele>1012</ele>
        <time>2021-08-19T12:48:21Z</time>
      </trkpt>
      <trkpt lat="48.00398" lon="6.83498">
        <ele>1014</ele>
        <time>2021-08-19T12:48:27Z</time>
      </trkpt>
      <trkpt lat="48.00391" lon="6.83471">
        <ele>1013</ele>
        <time>2021-08-19T12:48:31Z</time>
      </trkpt>
      <trkpt lat="48.00352" lon="6.83453">
        <ele>1010</ele>
        <time>2021-08-19T12:48:41Z</time>
      </trkpt>
      <trkpt lat="48.00344" lon="6.83419">
        <ele>1008</ele>
        <time>2021-08-19T12:48:46Z</time>
      </trkpt>
      <trkpt lat="48.0034" lon="6.83376">
        <ele>1010</ele>
        <time>2021-08-19T12:48:53Z</time>
      </trkpt>
      <trkpt lat="48.00319" lon="6.83351">
        <ele>1011</ele>
        <time>2021-08-19T12:48:59Z</time>
      </trkpt>
      <trkpt lat="48.00261" lon="6.83352">
        <ele>1010</ele>
        <time>2021-08-19T12:49:13Z</time>
      </trkpt>
      <trkpt lat="48.00236" lon="6.83335">
        <ele>1011</ele>
        <time>2021-08-19T12:49:19Z</time>
      </trkpt>
      <trkpt lat="48.00201" lon="6.83298">
        <ele>1013</ele>
        <time>2021-08-19T12:49:29Z</time>
      </trkpt>
      <trkpt lat="48.00171" lon="6.83231">
        <ele>1018</ele>
        <time>2021-08-19T12:49:42Z</time>
      </trkpt>
      <trkpt lat="48.00151" lon="6.83141">
        <ele>1021</ele>
        <time>2021-08-19T12:49:57Z</time>
      </trkpt>
      <trkpt lat="48.00129" lon="6.83091">
        <ele>1021</ele>
        <time>2021-08-19T12:50:06Z</time>
      </trkpt>
      <trkpt lat="48.00205" lon="6.83084">
        <ele>1025</ele>
        <time>2021-08-19T12:50:24Z</time>
      </trkpt>
      <trkpt lat="48.00245" lon="6.83085">
        <ele>1028</ele>
        <time>2021-08-19T12:50:33Z</time>
      </trkpt>
      <trkpt lat="48.00302" lon="6.83056">
        <ele>1025</ele>
        <time>2021-08-19T12:50:47Z</time>
      </trkpt>
      <trkpt lat="48.00366" lon="6.82996">
        <ele>1023</ele>
        <time>2021-08-19T12:51:05Z</time>
      </trkpt>
      <trkpt lat="48.00401" lon="6.8294">
        <ele>1019</ele>
        <time>2021-08-19T12:51:17Z</time>
      </trkpt>
      <trkpt lat="48.00407" lon="6.82863">
        <ele>1015</ele>
        <time>2021-08-19T12:51:29Z</time>
      </trkpt>
      <trkpt lat="48.00403" lon="6.82792">
        <ele>1013</ele>
        <time>2021-08-19T12:51:40Z</time>
      </trkpt>
      <trkpt lat="48.0041" lon="6.82706">
        <ele>1011</ele>
        <time>2021-08-19T12:51:54Z</time>
      </trkpt>
      <trkpt lat="48.0045" lon="6.82618">
        <ele>1008</ele>
        <time>2021-08-19T12:52:10Z</time>
      </trkpt>
      <trkpt lat="48.0047" lon="6.82607">
        <ele>1008</ele>
        <time>2021-08-19T12:52:15Z</time>
      </trkpt>
      <trkpt lat="48.0051" lon="6.82611">
        <ele>1010</ele>
        <time>2021-08-19T12:52:25Z</time>
      </trkpt>
      <trkpt lat="48.00541" lon="6.82577">
        <ele>1008</ele>
        <time>2021-08-19T12:52:34Z</time>
      </trkpt>
      <trkpt lat="48.00562" lon="6.8254">
        <ele>1007</ele>
        <time>2021-08-19T12:52:41Z</time>
      </trkpt>
      <trkpt lat="48.00564" lon="6.82521">
        <ele>1006</ele>
        <time>2021-08-19T12:52:44Z</time>
      </trkpt>
      <trkpt lat="48.0052" lon="6.82428">
        <ele>1002</ele>
        <time>2021-08-19T12:53:02Z</time>
      </trkpt>
      <trkpt lat="48.00505" lon="6.82386">
        <ele>1005</ele>
        <time>2021-08-19T12:53:10Z</time>
      </trkpt>
      <trkpt lat="48.00511" lon="6.82266">
        <ele>1011</ele>
        <time>2021-08-19T12:53:28Z</time>
      </trkpt>
      <trkpt lat="48.00503" lon="6.82245">
        <ele>1013</ele>
        <time>2021-08-19T12:53:32Z</time>
      </trkpt>
      <trkpt lat="48.00481" lon="6.82221">
        <ele>1014</ele>
        <time>2021-08-19T12:53:38Z</time>
      </trkpt>
      <trkpt lat="48.00451" lon="6.82159">
        <ele>1015</ele>
        <time>2021-08-19T12:53:50Z</time>
      </trkpt>
      <trkpt lat="48.00419" lon="6.8205">
        <ele>1013</ele>
        <time>2021-08-19T12:54:09Z</time>
      </trkpt>
      <trkpt lat="48.00425" lon="6.81904">
        <ele>1008</ele>
        <time>2021-08-19T12:54:32Z</time>
      </trkpt>
      <trkpt lat="48.0044" lon="6.81752">
        <ele>997</ele>
        <time>2021-08-19T12:54:56Z</time>
      </trkpt>
      <trkpt lat="48.00459" lon="6.81614">
        <ele>988</ele>
        <time>2021-08-19T12:55:18Z</time>
      </trkpt>
      <trkpt lat="48.00488" lon="6.81541">
        <ele>985</ele>
        <time>2021-08-19T12:55:31Z</time>
      </trkpt>
      <trkpt lat="48.00555" lon="6.81425">
        <ele>979</ele>
        <time>2021-08-19T12:55:55Z</time>
      </trkpt>
      <trkpt lat="48.00605" lon="6.81378">
        <ele>976</ele>
        <time>2021-08-19T12:56:09Z</time>
      </trkpt>
      <trkpt lat="48.00649" lon="6.81342">
        <ele>974</ele>
        <time>2021-08-19T12:56:21Z</time>
      </trkpt>
      <trkpt lat="48.00613" lon="6.81341">
        <ele>974</ele>
        <time>2021-08-19T12:56:29Z</time>
      </trkpt>
      <trkpt lat="48.00575" lon="6.81329">
        <ele>972</ele>
        <time>2021-08-19T12:56:38Z</time>
      </trkpt>
      <trkpt lat="48.00544" lon="6.81336">
        <ele>969</ele>
        <time>2021-08-19T12:56:45Z</time>
      </trkpt>
      <trkpt lat="48.00491" lon="6.81368">
        <ele>967</ele>
        <time>2021-08-19T12:56:59Z</time>
      </trkpt>
      <trkpt lat="48.00423" lon="6.81426">
        <ele>963</ele>
        <time>2021-08-19T12:57:17Z</time>
      </trkpt>
      <trkpt lat="48.00355" lon="6.8152">
        <ele>959</ele>
        <time>2021-08-19T12:57:39Z</time>
      </trkpt>
      <trkpt lat="48.00284" lon="6.81602">
        <ele>956</ele>
        <time>2021-08-19T12:58:00Z</time>
      </trkpt>
      <trkpt lat="48.00217" lon="6.81672">
        <ele>957</ele>
        <time>2021-08-19T12:58:19Z</time>
      </trkpt>
      <trkpt lat="48.00166" lon="6.81692">
        <ele>957</ele>
        <time>2021-08-19T12:58:31Z</time>
      </trkpt>
      <trkpt lat="48.00112" lon="6.81766">
        <ele>962</ele>
        <time>2021-08-19T12:58:48Z</time>
      </trkpt>
      <trkpt lat="48.00089" lon="6.81789">
        <ele>964</ele>
        <time>2021-08-19T12:58:55Z</time>
      </trkpt>
      <trkpt lat="48.00062" lon="6.81796">
        <ele>964</ele>
        <time>2021-08-19T12:59:01Z</time>
      </trkpt>
      <trkpt lat="48.00035" lon="6.81784">
        <ele>963</ele>
        <time>2021-08-19T12:59:08Z</time>
      </trkpt>
      <trkpt lat="48.00016" lon="6.8177">
        <ele>961</ele>
        <time>2021-08-19T12:59:13Z</time>
      </trkpt>
      <trkpt lat="47.99982" lon="6.81734">
        <ele>958</ele>
        <time>2021-08-19T12:59:22Z</time>
      </trkpt>
      <trkpt lat="47.99954" lon="6.81722">
        <ele>959</ele>
        <time>2021-08-19T12:59:29Z</time>
      </trkpt>
      <trkpt lat="47.9994" lon="6.81713">
        <ele>959</ele>
        <time>2021-08-19T12:59:33Z</time>
      </trkpt>
      <trkpt lat="47.99923" lon="6.81695">
        <ele>958</ele>
        <time>2021-08-19T12:59:37Z</time>
      </trkpt>
      <trkpt lat="47.99916" lon="6.81654">
        <ele>955</ele>
        <time>2021-08-19T12:59:44Z</time>
      </trkpt>
      <trkpt lat="47.99912" lon="6.81554">
        <ele>954</ele>
        <time>2021-08-19T13:00:00Z</time>
      </trkpt>
      <trkpt lat="47.99915" lon="6.81448">
        <ele>954</ele>
        <time>2021-08-19T13:00:16Z</time>
      </trkpt>
      <trkpt lat="47.99936" lon="6.81282">
        <ele>957</ele>
        <time>2021-08-19T13:00:43Z</time>
      </trkpt>
      <trkpt lat="47.99952" lon="6.8122">
        <ele>952</ele>
        <time>2021-08-19T13:00:53Z</time>
      </trkpt>
      <trkpt lat="47.99956" lon="6.81184">
        <ele>950</ele>
        <time>2021-08-19T13:00:59Z</time>
      </trkpt>
      <trkpt lat="47.99949" lon="6.81166">
        <ele>953</ele>
        <time>2021-08-19T13:01:02Z</time>
      </trkpt>
      <trkpt lat="47.99923" lon="6.81136">
        <ele>963</ele>
        <time>2021-08-19T13:01:10Z</time>
      </trkpt>
      <trkpt lat="47.99915" lon="6.81067">
        <ele>964</ele>
        <time>2021-08-19T13:01:21Z</time>
      </trkpt>
      <trkpt lat="47.99896" lon="6.81002">
        <ele>964</ele>
        <time>2021-08-19T13:01:32Z</time>
      </trkpt>
      <trkpt lat="47.99878" lon="6.80967">
        <ele>967</ele>
        <time>2021-08-19T13:01:39Z</time>
      </trkpt>
      <trkpt lat="47.99873" lon="6.80914">
        <ele>963</ele>
        <time>2021-08-19T13:01:47Z</time>
      </trkpt>
      <trkpt lat="47.99864" lon="6.80895">
        <ele>965</ele>
        <time>2021-08-19T13:01:51Z</time>
      </trkpt>
      <trkpt lat="47.99809" lon="6.80847">
        <ele>976</ele>
        <time>2021-08-19T13:02:06Z</time>
      </trkpt>
      <trkpt lat="47.99776" lon="6.80791">
        <ele>977</ele>
        <time>2021-08-19T13:02:17Z</time>
      </trkpt>
      <trkpt lat="47.99749" lon="6.80711">
        <ele>977</ele>
        <time>2021-08-19T13:02:31Z</time>
      </trkpt>
      <trkpt lat="47.99725" lon="6.80688">
        <ele>974</ele>
        <time>2021-08-19T13:02:38Z</time>
      </trkpt>
      <trkpt lat="47.99722" lon="6.80716">
        <ele>973</ele>
        <time>2021-08-19T13:02:42Z</time>
      </trkpt>
      <trkpt lat="47.99715" lon="6.80733">
        <ele>973</ele>
        <time>2021-08-19T13:02:45Z</time>
      </trkpt>
      <trkpt lat="47.99684" lon="6.80763">
        <ele>973</ele>
        <time>2021-08-19T13:02:54Z</time>
      </trkpt>
      <trkpt lat="47.9963" lon="6.80857">
        <ele>979</ele>
        <time>2021-08-19T13:03:13Z</time>
      </trkpt>
      <trkpt lat="47.99615" lon="6.80888">
        <ele>980</ele>
        <time>2021-08-19T13:03:19Z</time>
      </trkpt>
      <trkpt lat="47.99607" lon="6.80929">
        <ele>982</ele>
        <time>2021-08-19T13:03:26Z</time>
      </trkpt>
      <trkpt lat="47.99608" lon="6.8098">
        <ele>984</ele>
        <time>2021-08-19T13:03:34Z</time>
      </trkpt>
      <trkpt lat="47.99618" lon="6.8104">
        <ele>988</ele>
        <time>2021-08-19T13:03:44Z</time>
      </trkpt>
      <trkpt lat="47.99633" lon="6.81172">
        <ele>994</ele>
        <time>2021-08-19T13:04:05Z</time>
      </trkpt>
      <trkpt lat="47.99623" lon="6.81262">
        <ele>997</ele>
        <time>2021-08-19T13:04:19Z</time>
      </trkpt>
      <trkpt lat="47.996" lon="6.81347">
        <ele>999</ele>
        <time>2021-08-19T13:04:33Z</time>
      </trkpt>
      <trkpt lat="47.9959" lon="6.81402">
        <ele>1003</ele>
        <time>2021-08-19T13:04:42Z</time>
      </trkpt>
      <trkpt lat="47.99567" lon="6.81477">
        <ele>1006</ele>
        <time>2021-08-19T13:04:55Z</time>
      </trkpt>
      <trkpt lat="47.99548" lon="6.81525">
        <ele>1009</ele>
        <time>2021-08-19T13:05:04Z</time>
      </trkpt>
      <trkpt lat="47.99538" lon="6.81541">
        <ele>1010</ele>
        <time>2021-08-19T13:05:07Z</time>
      </trkpt>
      <trkpt lat="47.99449" lon="6.81577">
        <ele>1005</ele>
        <time>2021-08-19T13:05:29Z</time>
      </trkpt>
      <trkpt lat="47.99414" lon="6.81576">
        <ele>1002</ele>
        <time>2021-08-19T13:05:37Z</time>
      </trkpt>
      <trkpt lat="47.99393" lon="6.81584">
        <ele>1000</ele>
        <time>2021-08-19T13:05:42Z</time>
      </trkpt>
      <trkpt lat="47.99372" lon="6.81609">
        <ele>999</ele>
        <time>2021-08-19T13:05:48Z</time>
      </trkpt>
      <trkpt lat="47.99363" lon="6.81634">
        <ele>999</ele>
        <time>2021-08-19T13:05:53Z</time>
      </trkpt>
      <trkpt lat="47.99357" lon="6.81712">
        <ele>999</ele>
        <time>2021-08-19T13:06:05Z</time>
      </trkpt>
      <trkpt lat="47.99358" lon="6.81779">
        <ele>998</ele>
        <time>2021-08-19T13:06:15Z</time>
      </trkpt>
      <trkpt lat="47.9938" lon="6.81882">
        <ele>1001</ele>
        <time>2021-08-19T13:06:32Z</time>
      </trkpt>
      <trkpt lat="47.99407" lon="6.81982">
        <ele>1004</ele>
        <time>2021-08-19T13:06:49Z</time>
      </trkpt>
      <trkpt lat="47.99411" lon="6.82129">
        <ele>1002</ele>
        <time>2021-08-19T13:07:12Z</time>
      </trkpt>
      <trkpt lat="47.99427" lon="6.82211">
        <ele>1006</ele>
        <time>2021-08-19T13:07:25Z</time>
      </trkpt>
      <trkpt lat="47.99433" lon="6.82346">
        <ele>1001</ele>
        <time>2021-08-19T13:07:47Z</time>
      </trkpt>
      <trkpt lat="47.99446" lon="6.82413">
        <ele>999</ele>
        <time>2021-08-19T13:07:57Z</time>
      </trkpt>
      <trkpt lat="47.99546" lon="6.82591">
        <ele>1003</ele>
        <time>2021-08-19T13:08:34Z</time>
      </trkpt>
      <trkpt lat="47.99546" lon="6.82901">
        <ele>973</ele>
        <time>2021-08-19T13:09:22Z</time>
      </trkpt>
      <trkpt lat="47.99557" lon="6.82955">
        <ele>965</ele>
        <time>2021-08-19T13:09:31Z</time>
      </trkpt>
      <trkpt lat="47.99567" lon="6.82973">
        <ele>964</ele>
        <time>2021-08-19T13:09:35Z</time>
      </trkpt>
      <trkpt lat="47.99597" lon="6.83143">
        <ele>938</ele>
        <time>2021-08-19T13:10:02Z</time>
      </trkpt>
      <trkpt lat="47.99617" lon="6.83181">
        <ele>932</ele>
        <time>2021-08-19T13:10:10Z</time>
      </trkpt>
      <trkpt lat="47.99592" lon="6.83332">
        <ele>902</ele>
        <time>2021-08-19T13:10:34Z</time>
      </trkpt>
      <trkpt lat="47.9959" lon="6.83371">
        <ele>898</ele>
        <time>2021-08-19T13:10:40Z</time>
      </trkpt>
      <trkpt lat="47.99555" lon="6.8346">
        <ele>886</ele>
        <time>2021-08-19T13:10:56Z</time>
      </trkpt>
      <trkpt lat="47.9955" lon="6.83595">
        <ele>875</ele>
        <time>2021-08-19T13:11:17Z</time>
      </trkpt>
      <trkpt lat="47.99543" lon="6.83616">
        <ele>873</ele>
        <time>2021-08-19T13:11:21Z</time>
      </trkpt>
      <trkpt lat="47.99513" lon="6.83665">
        <ele>869</ele>
        <time>2021-08-19T13:11:31Z</time>
      </trkpt>
      <trkpt lat="47.9949" lon="6.8369">
        <ele>864</ele>
        <time>2021-08-19T13:11:38Z</time>
      </trkpt>
      <trkpt lat="47.99485" lon="6.83725">
        <ele>861</ele>
        <time>2021-08-19T13:11:44Z</time>
      </trkpt>
      <trkpt lat="47.99474" lon="6.83739">
        <ele>858</ele>
        <time>2021-08-19T13:11:47Z</time>
      </trkpt>
      <trkpt lat="47.99471" lon="6.83756">
        <ele>856</ele>
        <time>2021-08-19T13:11:50Z</time>
      </trkpt>
      <trkpt lat="47.99478" lon="6.83793">
        <ele>852</ele>
        <time>2021-08-19T13:11:56Z</time>
      </trkpt>
      <trkpt lat="47.99467" lon="6.83858">
        <ele>843</ele>
        <time>2021-08-19T13:12:06Z</time>
      </trkpt>
      <trkpt lat="47.99499" lon="6.83912">
        <ele>841</ele>
        <time>2021-08-19T13:12:18Z</time>
      </trkpt>
      <trkpt lat="47.99524" lon="6.83942">
        <ele>834</ele>
        <time>2021-08-19T13:12:25Z</time>
      </trkpt>
      <trkpt lat="47.9954" lon="6.83944">
        <ele>831</ele>
        <time>2021-08-19T13:12:29Z</time>
      </trkpt>
      <trkpt lat="47.99539" lon="6.83991">
        <ele>823</ele>
        <time>2021-08-19T13:12:36Z</time>
      </trkpt>
      <trkpt lat="47.99547" lon="6.84014">
        <ele>817</ele>
        <time>2021-08-19T13:12:40Z</time>
      </trkpt>
      <trkpt lat="47.99602" lon="6.83999">
        <ele>811</ele>
        <time>2021-08-19T13:12:53Z</time>
      </trkpt>
      <trkpt lat="47.99592" lon="6.84036">
        <ele>804</ele>
        <time>2021-08-19T13:13:00Z</time>
      </trkpt>
      <trkpt lat="47.9959" lon="6.84061">
        <ele>797</ele>
        <time>2021-08-19T13:13:03Z</time>
      </trkpt>
      <trkpt lat="47.99598" lon="6.84068">
        <ele>794</ele>
        <time>2021-08-19T13:13:06Z</time>
      </trkpt>
      <trkpt lat="47.99571" lon="6.8409">
        <ele>793</ele>
        <time>2021-08-19T13:13:13Z</time>
      </trkpt>
      <trkpt lat="47.99549" lon="6.84138">
        <ele>786</ele>
        <time>2021-08-19T13:13:22Z</time>
      </trkpt>
      <trkpt lat="47.99515" lon="6.84181">
        <ele>781</ele>
        <time>2021-08-19T13:13:32Z</time>
      </trkpt>
      <trkpt lat="47.99478" lon="6.8425">
        <ele>764</ele>
        <time>2021-08-19T13:13:46Z</time>
      </trkpt>
      <trkpt lat="47.99439" lon="6.84285">
        <ele>752</ele>
        <time>2021-08-19T13:13:57Z</time>
      </trkpt>
      <trkpt lat="47.99418" lon="6.84274">
        <ele>753</ele>
        <time>2021-08-19T13:14:02Z</time>
      </trkpt>
      <trkpt lat="47.99333" lon="6.84207">
        <ele>740</ele>
        <time>2021-08-19T13:14:24Z</time>
      </trkpt>
      <trkpt lat="47.99391" lon="6.84341">
        <ele>729</ele>
        <time>2021-08-19T13:14:49Z</time>
      </trkpt>
      <trkpt lat="47.99378" lon="6.84374">
        <ele>721</ele>
        <time>2021-08-19T13:14:55Z</time>
      </trkpt>
      <trkpt lat="47.99366" lon="6.84433">
        <ele>710</ele>
        <time>2021-08-19T13:15:05Z</time>
      </trkpt>
      <trkpt lat="47.99392" lon="6.84483">
        <ele>706</ele>
        <time>2021-08-19T13:15:15Z</time>
      </trkpt>
      <trkpt lat="47.99379" lon="6.84487">
        <ele>702</ele>
        <time>2021-08-19T13:15:18Z</time>
      </trkpt>
      <trkpt lat="47.99376" lon="6.84497">
        <ele>700</ele>
        <time>2021-08-19T13:15:20Z</time>
      </trkpt>
      <trkpt lat="47.99327" lon="6.84486">
        <ele>689</ele>
        <time>2021-08-19T13:15:31Z</time>
      </trkpt>
      <trkpt lat="47.99331" lon="6.84509">
        <ele>686</ele>
        <time>2021-08-19T13:15:35Z</time>
      </trkpt>
      <trkpt lat="47.99348" lon="6.84536">
        <ele>684</ele>
        <time>2021-08-19T13:15:41Z</time>
      </trkpt>
      <trkpt lat="47.99338" lon="6.84548">
        <ele>679</ele>
        <time>2021-08-19T13:15:44Z</time>
      </trkpt>
      <trkpt lat="47.99287" lon="6.845">
        <ele>668</ele>
        <time>2021-08-19T13:15:58Z</time>
      </trkpt>
      <trkpt lat="47.99296" lon="6.84603">
        <ele>654</ele>
        <time>2021-08-19T13:16:14Z</time>
      </trkpt>
      <trkpt lat="47.99304" lon="6.84651">
        <ele>652</ele>
        <time>2021-08-19T13:16:22Z</time>
      </trkpt>
      <trkpt lat="47.99287" lon="6.84666">
        <ele>645</ele>
        <time>2021-08-19T13:16:26Z</time>
      </trkpt>
      <trkpt lat="47.99287" lon="6.84745">
        <ele>633</ele>
        <time>2021-08-19T13:16:39Z</time>
      </trkpt>
      <trkpt lat="47.99256" lon="6.84734">
        <ele>626</ele>
        <time>2021-08-19T13:16:46Z</time>
      </trkpt>
      <trkpt lat="47.99213" lon="6.84697">
        <ele>620</ele>
        <time>2021-08-19T13:16:58Z</time>
      </trkpt>
      <trkpt lat="47.99146" lon="6.8467">
        <ele>606</ele>
        <time>2021-08-19T13:17:14Z</time>
      </trkpt>
      <trkpt lat="47.9915" lon="6.84755">
        <ele>599</ele>
        <time>2021-08-19T13:17:27Z</time>
      </trkpt>
      <trkpt lat="47.99125" lon="6.84761">
        <ele>596</ele>
        <time>2021-08-19T13:17:33Z</time>
      </trkpt>
      <trkpt lat="47.99115" lon="6.84767">
        <ele>595</ele>
        <time>2021-08-19T13:17:36Z</time>
      </trkpt>
      <trkpt lat="47.99106" lon="6.84787">
        <ele>594</ele>
        <time>2021-08-19T13:17:39Z</time>
      </trkpt>
      <trkpt lat="47.99102" lon="6.84855">
        <ele>597</ele>
        <time>2021-08-19T13:17:50Z</time>
      </trkpt>
      <trkpt lat="47.99146" lon="6.84925">
        <ele>599</ele>
        <time>2021-08-19T13:18:05Z</time>
      </trkpt>
      <trkpt lat="47.9914" lon="6.84942">
        <ele>603</ele>
        <time>2021-08-19T13:18:08Z</time>
      </trkpt>
      <trkpt lat="47.99141" lon="6.84958">
        <ele>605</ele>
        <time>2021-08-19T13:18:11Z</time>
      </trkpt>
      <trkpt lat="47.99165" lon="6.8506">
        <ele>616</ele>
        <time>2021-08-19T13:18:28Z</time>
      </trkpt>
      <trkpt lat="47.99166" lon="6.85075">
        <ele>619</ele>
        <time>2021-08-19T13:18:30Z</time>
      </trkpt>
      <trkpt lat="47.99152" lon="6.85076">
        <ele>625</ele>
        <time>2021-08-19T13:18:33Z</time>
      </trkpt>
      <trkpt lat="47.99075" lon="6.85006">
        <ele>636</ele>
        <time>2021-08-19T13:18:54Z</time>
      </trkpt>
      <trkpt lat="47.98994" lon="6.84939">
        <ele>654</ele>
        <time>2021-08-19T13:19:16Z</time>
      </trkpt>
      <trkpt lat="47.98976" lon="6.84945">
        <ele>662</ele>
        <time>2021-08-19T13:19:20Z</time>
      </trkpt>
      <trkpt lat="47.98977" lon="6.84966">
        <ele>668</ele>
        <time>2021-08-19T13:19:23Z</time>
      </trkpt>
      <trkpt lat="47.99037" lon="6.8508">
        <ele>676</ele>
        <time>2021-08-19T13:19:46Z</time>
      </trkpt>
      <trkpt lat="47.99093" lon="6.85249">
        <ele>699</ele>
        <time>2021-08-19T13:20:16Z</time>
      </trkpt>
      <trkpt lat="47.99177" lon="6.85652">
        <ele>722</ele>
        <time>2021-08-19T13:21:22Z</time>
      </trkpt>
      <trkpt lat="47.99261" lon="6.8582">
        <ele>706</ele>
        <time>2021-08-19T13:21:54Z</time>
      </trkpt>
      <trkpt lat="47.99299" lon="6.85876">
        <ele>703</ele>
        <time>2021-08-19T13:22:07Z</time>
      </trkpt>
      <trkpt lat="47.99312" lon="6.85899">
        <ele>703</ele>
        <time>2021-08-19T13:22:12Z</time>
      </trkpt>
      <trkpt lat="47.99379" lon="6.85937">
        <ele>700</ele>
        <time>2021-08-19T13:22:28Z</time>
      </trkpt>
      <trkpt lat="47.99401" lon="6.85959">
        <ele>701</ele>
        <time>2021-08-19T13:22:34Z</time>
      </trkpt>
      <trkpt lat="47.99437" lon="6.86044">
        <ele>707</ele>
        <time>2021-08-19T13:22:50Z</time>
      </trkpt>
      <trkpt lat="47.99486" lon="6.86072">
        <ele>701</ele>
        <time>2021-08-19T13:23:02Z</time>
      </trkpt>
      <trkpt lat="47.99507" lon="6.8609">
        <ele>697</ele>
        <time>2021-08-19T13:23:08Z</time>
      </trkpt>
      <trkpt lat="47.99492" lon="6.86142">
        <ele>706</ele>
        <time>2021-08-19T13:23:17Z</time>
      </trkpt>
      <trkpt lat="47.99465" lon="6.8617">
        <ele>714</ele>
        <time>2021-08-19T13:23:25Z</time>
      </trkpt>
      <trkpt lat="47.9945" lon="6.86164">
        <ele>718</ele>
        <time>2021-08-19T13:23:28Z</time>
      </trkpt>
      <trkpt lat="47.99441" lon="6.86137">
        <ele>718</ele>
        <time>2021-08-19T13:23:33Z</time>
      </trkpt>
      <trkpt lat="47.99384" lon="6.86127">
        <ele>729</ele>
        <time>2021-08-19T13:23:46Z</time>
      </trkpt>
      <trkpt lat="47.99335" lon="6.86074">
        <ele>732</ele>
        <time>2021-08-19T13:24:00Z</time>
      </trkpt>
      <trkpt lat="47.99258" lon="6.86052">
        <ele>746</ele>
        <time>2021-08-19T13:24:19Z</time>
      </trkpt>
      <trkpt lat="47.99241" lon="6.86029">
        <ele>748</ele>
        <time>2021-08-19T13:24:24Z</time>
      </trkpt>
      <trkpt lat="47.99177" lon="6.85924">
        <ele>756</ele>
        <time>2021-08-19T13:24:46Z</time>
      </trkpt>
      <trkpt lat="47.99074" lon="6.85726">
        <ele>788</ele>
        <time>2021-08-19T13:25:25Z</time>
      </trkpt>
      <trkpt lat="47.99037" lon="6.85573">
        <ele>805</ele>
        <time>2021-08-19T13:25:51Z</time>
      </trkpt>
      <trkpt lat="47.99004" lon="6.85506">
        <ele>815</ele>
        <time>2021-08-19T13:26:04Z</time>
      </trkpt>
      <trkpt lat="47.98975" lon="6.85464">
        <ele>816</ele>
        <time>2021-08-19T13:26:13Z</time>
      </trkpt>
      <trkpt lat="47.98849" lon="6.85396">
        <ele>843</ele>
        <time>2021-08-19T13:26:45Z</time>
      </trkpt>
      <trkpt lat="47.9867" lon="6.8534">
        <ele>860</ele>
        <time>2021-08-19T13:27:27Z</time>
      </trkpt>
      <trkpt lat="47.98584" lon="6.8536">
        <ele>866</ele>
        <time>2021-08-19T13:27:48Z</time>
      </trkpt>
      <trkpt lat="47.98541" lon="6.8539">
        <ele>868</ele>
        <time>2021-08-19T13:27:59Z</time>
      </trkpt>
      <trkpt lat="47.98519" lon="6.85443">
        <ele>870</ele>
        <time>2021-08-19T13:28:09Z</time>
      </trkpt>
      <trkpt lat="47.98512" lon="6.85488">
        <ele>871</ele>
        <time>2021-08-19T13:28:16Z</time>
      </trkpt>
      <trkpt lat="47.98513" lon="6.85628">
        <ele>878</ele>
        <time>2021-08-19T13:28:38Z</time>
      </trkpt>
      <trkpt lat="47.98505" lon="6.85658">
        <ele>877</ele>
        <time>2021-08-19T13:28:43Z</time>
      </trkpt>
      <trkpt lat="47.98515" lon="6.85684">
        <ele>882</ele>
        <time>2021-08-19T13:28:47Z</time>
      </trkpt>
      <trkpt lat="47.9852" lon="6.85708">
        <ele>886</ele>
        <time>2021-08-19T13:28:51Z</time>
      </trkpt>
      <trkpt lat="47.98518" lon="6.85724">
        <ele>889</ele>
        <time>2021-08-19T13:28:54Z</time>
      </trkpt>
      <trkpt lat="47.9851" lon="6.85742">
        <ele>890</ele>
        <time>2021-08-19T13:28:57Z</time>
      </trkpt>
      <trkpt lat="47.98472" lon="6.85754">
        <ele>896</ele>
        <time>2021-08-19T13:29:06Z</time>
      </trkpt>
      <trkpt lat="47.98445" lon="6.85756">
        <ele>901</ele>
        <time>2021-08-19T13:29:13Z</time>
      </trkpt>
      <trkpt lat="47.98425" lon="6.85748">
        <ele>904</ele>
        <time>2021-08-19T13:29:17Z</time>
      </trkpt>
      <trkpt lat="47.98411" lon="6.85732">
        <ele>904</ele>
        <time>2021-08-19T13:29:22Z</time>
      </trkpt>
      <trkpt lat="47.98384" lon="6.85691">
        <ele>902</ele>
        <time>2021-08-19T13:29:31Z</time>
      </trkpt>
      <trkpt lat="47.98421" lon="6.85894">
        <ele>927</ele>
        <time>2021-08-19T13:30:03Z</time>
      </trkpt>
      <trkpt lat="47.98436" lon="6.85921">
        <ele>929</ele>
        <time>2021-08-19T13:30:09Z</time>
      </trkpt>
      <trkpt lat="47.98473" lon="6.85947">
        <ele>929</ele>
        <time>2021-08-19T13:30:18Z</time>
      </trkpt>
      <trkpt lat="47.98502" lon="6.8601">
        <ele>938</ele>
        <time>2021-08-19T13:30:30Z</time>
      </trkpt>
      <trkpt lat="47.98529" lon="6.86033">
        <ele>941</ele>
        <time>2021-08-19T13:30:38Z</time>
      </trkpt>
      <trkpt lat="47.98573" lon="6.8604">
        <ele>940</ele>
        <time>2021-08-19T13:30:48Z</time>
      </trkpt>
      <trkpt lat="47.98616" lon="6.86003">
        <ele>938</ele>
        <time>2021-08-19T13:31:00Z</time>
      </trkpt>
      <trkpt lat="47.98762" lon="6.85953">
        <ele>942</ele>
        <time>2021-08-19T13:31:35Z</time>
      </trkpt>
      <trkpt lat="47.98808" lon="6.85959">
        <ele>939</ele>
        <time>2021-08-19T13:31:45Z</time>
      </trkpt>
      <trkpt lat="47.98838" lon="6.86015">
        <ele>936</ele>
        <time>2021-08-19T13:31:57Z</time>
      </trkpt>
      <trkpt lat="47.98876" lon="6.86154">
        <ele>933</ele>
        <time>2021-08-19T13:32:20Z</time>
      </trkpt>
      <trkpt lat="47.98874" lon="6.8628">
        <ele>927</ele>
        <time>2021-08-19T13:32:40Z</time>
      </trkpt>
      <trkpt lat="47.98853" lon="6.86367">
        <ele>924</ele>
        <time>2021-08-19T13:32:54Z</time>
      </trkpt>
      <trkpt lat="47.98798" lon="6.86489">
        <ele>916</ele>
        <time>2021-08-19T13:33:17Z</time>
      </trkpt>
      <trkpt lat="47.98745" lon="6.86552">
        <ele>911</ele>
        <time>2021-08-19T13:33:33Z</time>
      </trkpt>
      <trkpt lat="47.98683" lon="6.86709">
        <ele>902</ele>
        <time>2021-08-19T13:34:01Z</time>
      </trkpt>
      <trkpt lat="47.98677" lon="6.8676">
        <ele>898</ele>
        <time>2021-08-19T13:34:10Z</time>
      </trkpt>
      <trkpt lat="47.98678" lon="6.86818">
        <ele>889</ele>
        <time>2021-08-19T13:34:19Z</time>
      </trkpt>
      <trkpt lat="47.98696" lon="6.86857">
        <ele>882</ele>
        <time>2021-08-19T13:34:26Z</time>
      </trkpt>
      <trkpt lat="47.98706" lon="6.86872">
        <ele>881</ele>
        <time>2021-08-19T13:34:29Z</time>
      </trkpt>
      <trkpt lat="47.98726" lon="6.86918">
        <ele>878</ele>
        <time>2021-08-19T13:34:38Z</time>
      </trkpt>
      <trkpt lat="47.9875" lon="6.86946">
        <ele>879</ele>
        <time>2021-08-19T13:34:45Z</time>
      </trkpt>
      <trkpt lat="47.98767" lon="6.86959">
        <ele>877</ele>
        <time>2021-08-19T13:34:49Z</time>
      </trkpt>
      <trkpt lat="47.98752" lon="6.86994">
        <ele>880</ele>
        <time>2021-08-19T13:34:56Z</time>
      </trkpt>
      <trkpt lat="47.98762" lon="6.87012">
        <ele>880</ele>
        <time>2021-08-19T13:35:00Z</time>
      </trkpt>
      <trkpt lat="47.9876" lon="6.87084">
        <ele>883</ele>
        <time>2021-08-19T13:35:11Z</time>
      </trkpt>
      <trkpt lat="47.98769" lon="6.87107">
        <ele>885</ele>
        <time>2021-08-19T13:35:15Z</time>
      </trkpt>
      <trkpt lat="47.98769" lon="6.87235">
        <ele>891</ele>
        <time>2021-08-19T13:35:35Z</time>
      </trkpt>
      <trkpt lat="47.9879" lon="6.87328">
        <ele>896</ele>
        <time>2021-08-19T13:35:50Z</time>
      </trkpt>
      <trkpt lat="47.98841" lon="6.87449">
        <ele>903</ele>
        <time>2021-08-19T13:36:13Z</time>
      </trkpt>
      <trkpt lat="47.98885" lon="6.87583">
        <ele>914</ele>
        <time>2021-08-19T13:36:36Z</time>
      </trkpt>
      <trkpt lat="47.98891" lon="6.87577">
        <ele>917</ele>
        <time>2021-08-19T13:36:38Z</time>
      </trkpt>
      <trkpt lat="47.98893" lon="6.87562">
        <ele>918</ele>
        <time>2021-08-19T13:36:40Z</time>
      </trkpt>
      <trkpt lat="47.98872" lon="6.87454">
        <ele>913</ele>
        <time>2021-08-19T13:36:58Z</time>
      </trkpt>
      <trkpt lat="47.98856" lon="6.87394">
        <ele>911</ele>
        <time>2021-08-19T13:37:08Z</time>
      </trkpt>
      <trkpt lat="47.9885" lon="6.87349">
        <ele>912</ele>
        <time>2021-08-19T13:37:15Z</time>
      </trkpt>
      <trkpt lat="47.98859" lon="6.87339">
        <ele>914</ele>
        <time>2021-08-19T13:37:18Z</time>
      </trkpt>
      <trkpt lat="47.98941" lon="6.87515">
        <ele>936</ele>
        <time>2021-08-19T13:37:51Z</time>
      </trkpt>
      <trkpt lat="47.98973" lon="6.87693">
        <ele>947</ele>
        <time>2021-08-19T13:38:20Z</time>
      </trkpt>
      <trkpt lat="47.98991" lon="6.87762">
        <ele>952</ele>
        <time>2021-08-19T13:38:32Z</time>
      </trkpt>
      <trkpt lat="47.98995" lon="6.87847">
        <ele>953</ele>
        <time>2021-08-19T13:38:45Z</time>
      </trkpt>
      <trkpt lat="47.9896" lon="6.88274">
        <ele>987</ele>
        <time>2021-08-19T13:39:52Z</time>
      </trkpt>
      <trkpt lat="47.98973" lon="6.88378">
        <ele>1004</ele>
        <time>2021-08-19T13:40:09Z</time>
      </trkpt>
      <trkpt lat="47.98973" lon="6.88433">
        <ele>1009</ele>
        <time>2021-08-19T13:40:17Z</time>
      </trkpt>
      <trkpt lat="47.98961" lon="6.88506">
        <ele>1012</ele>
        <time>2021-08-19T13:40:29Z</time>
      </trkpt>
      <trkpt lat="47.98934" lon="6.88578">
        <ele>1013</ele>
        <time>2021-08-19T13:40:42Z</time>
      </trkpt>
      <trkpt lat="47.98887" lon="6.88646">
        <ele>1007</ele>
        <time>2021-08-19T13:40:57Z</time>
      </trkpt>
      <trkpt lat="47.98875" lon="6.88694">
        <ele>1009</ele>
        <time>2021-08-19T13:41:05Z</time>
      </trkpt>
      <trkpt lat="47.98893" lon="6.88872">
        <ele>1024</ele>
        <time>2021-08-19T13:41:33Z</time>
      </trkpt>
      <trkpt lat="47.98938" lon="6.89">
        <ele>1033</ele>
        <time>2021-08-19T13:41:56Z</time>
      </trkpt>
      <trkpt lat="47.98955" lon="6.89106">
        <ele>1042</ele>
        <time>2021-08-19T13:42:13Z</time>
      </trkpt>
      <trkpt lat="47.98932" lon="6.89172">
        <ele>1047</ele>
        <time>2021-08-19T13:42:25Z</time>
      </trkpt>
      <trkpt lat="47.98892" lon="6.89249">
        <ele>1053</ele>
        <time>2021-08-19T13:42:40Z</time>
      </trkpt>
      <trkpt lat="47.9887" lon="6.89394">
        <ele>1055</ele>
        <time>2021-08-19T13:43:03Z</time>
      </trkpt>
      <trkpt lat="47.98862" lon="6.89497">
        <ele>1054</ele>
        <time>2021-08-19T13:43:19Z</time>
      </trkpt>
      <trkpt lat="47.98839" lon="6.89593">
        <ele>1054</ele>
        <time>2021-08-19T13:43:35Z</time>
      </trkpt>
      <trkpt lat="47.98838" lon="6.89633">
        <ele>1057</ele>
        <time>2021-08-19T13:43:41Z</time>
      </trkpt>
      <trkpt lat="47.9884" lon="6.89655">
        <ele>1060</ele>
        <time>2021-08-19T13:43:45Z</time>
      </trkpt>
      <trkpt lat="47.98846" lon="6.89666">
        <ele>1063</ele>
        <time>2021-08-19T13:43:47Z</time>
      </trkpt>
      <trkpt lat="47.98851" lon="6.89684">
        <ele>1065</ele>
        <time>2021-08-19T13:43:50Z</time>
      </trkpt>
      <trkpt lat="47.98848" lon="6.89696">
        <ele>1065</ele>
        <time>2021-08-19T13:43:52Z</time>
      </trkpt>
      <trkpt lat="47.98784" lon="6.89632">
        <ele>1060</ele>
        <time>2021-08-19T13:44:10Z</time>
      </trkpt>
      <trkpt lat="47.98706" lon="6.89622">
        <ele>1066</ele>
        <time>2021-08-19T13:44:28Z</time>
      </trkpt>
      <trkpt lat="47.98604" lon="6.89651">
        <ele>1076</ele>
        <time>2021-08-19T13:44:53Z</time>
      </trkpt>
      <trkpt lat="47.98474" lon="6.89744">
        <ele>1091</ele>
        <time>2021-08-19T13:45:26Z</time>
      </trkpt>
      <trkpt lat="47.98444" lon="6.89792">
        <ele>1094</ele>
        <time>2021-08-19T13:45:37Z</time>
      </trkpt>
      <trkpt lat="47.98431" lon="6.89823">
        <ele>1094</ele>
        <time>2021-08-19T13:45:42Z</time>
      </trkpt>
      <trkpt lat="47.98428" lon="6.89848">
        <ele>1094</ele>
        <time>2021-08-19T13:45:46Z</time>
      </trkpt>
      <trkpt lat="47.98418" lon="6.90067">
        <ele>1088</ele>
        <time>2021-08-19T13:46:21Z</time>
      </trkpt>
      <trkpt lat="47.98401" lon="6.90187">
        <ele>1084</ele>
        <time>2021-08-19T13:46:40Z</time>
      </trkpt>
      <trkpt lat="47.98401" lon="6.90348">
        <ele>1080</ele>
        <time>2021-08-19T13:47:05Z</time>
      </trkpt>
      <trkpt lat="47.98411" lon="6.90505">
        <ele>1084</ele>
        <time>2021-08-19T13:47:30Z</time>
      </trkpt>
      <trkpt lat="47.98395" lon="6.90584">
        <ele>1084</ele>
        <time>2021-08-19T13:47:42Z</time>
      </trkpt>
      <trkpt lat="47.98365" lon="6.9067">
        <ele>1081</ele>
        <time>2021-08-19T13:47:58Z</time>
      </trkpt>
      <trkpt lat="47.98354" lon="6.90737">
        <ele>1082</ele>
        <time>2021-08-19T13:48:08Z</time>
      </trkpt>
      <trkpt lat="47.98365" lon="6.90859">
        <ele>1080</ele>
        <time>2021-08-19T13:48:28Z</time>
      </trkpt>
      <trkpt lat="47.98444" lon="6.90993">
        <ele>1077</ele>
        <time>2021-08-19T13:48:56Z</time>
      </trkpt>
      <trkpt lat="47.9847" lon="6.91066">
        <ele>1076</ele>
        <time>2021-08-19T13:49:09Z</time>
      </trkpt>
      <trkpt lat="47.98502" lon="6.91143">
        <ele>1075</ele>
        <time>2021-08-19T13:49:23Z</time>
      </trkpt>
      <trkpt lat="47.98521" lon="6.91169">
        <ele>1077</ele>
        <time>2021-08-19T13:49:29Z</time>
      </trkpt>
      <trkpt lat="47.98543" lon="6.91286">
        <ele>1072</ele>
        <time>2021-08-19T13:49:48Z</time>
      </trkpt>
      <trkpt lat="47.98553" lon="6.91369">
        <ele>1067</ele>
        <time>2021-08-19T13:50:01Z</time>
      </trkpt>
      <trkpt lat="47.98575" lon="6.91463">
        <ele>1067</ele>
        <time>2021-08-19T13:50:16Z</time>
      </trkpt>
      <trkpt lat="47.98579" lon="6.91589">
        <ele>1064</ele>
        <time>2021-08-19T13:50:36Z</time>
      </trkpt>
      <trkpt lat="47.98596" lon="6.91651">
        <ele>1064</ele>
        <time>2021-08-19T13:50:47Z</time>
      </trkpt>
      <trkpt lat="47.98633" lon="6.91755">
        <ele>1067</ele>
        <time>2021-08-19T13:51:05Z</time>
      </trkpt>
      <trkpt lat="47.98656" lon="6.91909">
        <ele>1070</ele>
        <time>2021-08-19T13:51:30Z</time>
      </trkpt>
      <trkpt lat="47.98673" lon="6.91947">
        <ele>1071</ele>
        <time>2021-08-19T13:51:37Z</time>
      </trkpt>
      <trkpt lat="47.98685" lon="6.92001">
        <ele>1068</ele>
        <time>2021-08-19T13:51:46Z</time>
      </trkpt>
      <trkpt lat="47.98744" lon="6.92081">
        <ele>1063</ele>
        <time>2021-08-19T13:52:04Z</time>
      </trkpt>
      <trkpt lat="47.98778" lon="6.92139">
        <ele>1056</ele>
        <time>2021-08-19T13:52:16Z</time>
      </trkpt>
      <trkpt lat="47.98795" lon="6.92149">
        <ele>1056</ele>
        <time>2021-08-19T13:52:21Z</time>
      </trkpt>
      <trkpt lat="47.9881" lon="6.9217">
        <ele>1057</ele>
        <time>2021-08-19T13:52:25Z</time>
      </trkpt>
      <trkpt lat="47.98841" lon="6.92248">
        <ele>1058</ele>
        <time>2021-08-19T13:52:40Z</time>
      </trkpt>
      <trkpt lat="47.98869" lon="6.92338">
        <ele>1059</ele>
        <time>2021-08-19T13:52:55Z</time>
      </trkpt>
      <trkpt lat="47.98996" lon="6.92579">
        <ele>1070</ele>
        <time>2021-08-19T13:53:43Z</time>
      </trkpt>
      <trkpt lat="47.9904" lon="6.92671">
        <ele>1068</ele>
        <time>2021-08-19T13:54:01Z</time>
      </trkpt>
      <trkpt lat="47.99045" lon="6.92722">
        <ele>1068</ele>
        <time>2021-08-19T13:54:09Z</time>
      </trkpt>
      <trkpt lat="47.99063" lon="6.92734">
        <ele>1069</ele>
        <time>2021-08-19T13:54:13Z</time>
      </trkpt>
      <trkpt lat="47.99096" lon="6.92626">
        <ele>1068</ele>
        <time>2021-08-19T13:54:32Z</time>
      </trkpt>
      <trkpt lat="47.99097" lon="6.92566">
        <ele>1068</ele>
        <time>2021-08-19T13:54:41Z</time>
      </trkpt>
      <trkpt lat="47.99131" lon="6.9244">
        <ele>1061</ele>
        <time>2021-08-19T13:55:03Z</time>
      </trkpt>
      <trkpt lat="47.9914" lon="6.92353">
        <ele>1060</ele>
        <time>2021-08-19T13:55:16Z</time>
      </trkpt>
      <trkpt lat="47.9913" lon="6.9229">
        <ele>1057</ele>
        <time>2021-08-19T13:55:26Z</time>
      </trkpt>
      <trkpt lat="47.99105" lon="6.9225">
        <ele>1056</ele>
        <time>2021-08-19T13:55:35Z</time>
      </trkpt>
      <trkpt lat="47.99134" lon="6.92231">
        <ele>1047</ele>
        <time>2021-08-19T13:55:42Z</time>
      </trkpt>
      <trkpt lat="47.9916" lon="6.92248">
        <ele>1048</ele>
        <time>2021-08-19T13:55:49Z</time>
      </trkpt>
      <trkpt lat="47.99177" lon="6.92271">
        <ele>1046</ele>
        <time>2021-08-19T13:55:54Z</time>
      </trkpt>
      <trkpt lat="47.9919" lon="6.92315">
        <ele>1046</ele>
        <time>2021-08-19T13:56:02Z</time>
      </trkpt>
      <trkpt lat="47.99195" lon="6.92388">
        <ele>1043</ele>
        <time>2021-08-19T13:56:13Z</time>
      </trkpt>
      <trkpt lat="47.99195" lon="6.92467">
        <ele>1039</ele>
        <time>2021-08-19T13:56:26Z</time>
      </trkpt>
      <trkpt lat="47.99187" lon="6.92531">
        <ele>1043</ele>
        <time>2021-08-19T13:56:36Z</time>
      </trkpt>
      <trkpt lat="47.9919" lon="6.92549">
        <ele>1043</ele>
        <time>2021-08-19T13:56:39Z</time>
      </trkpt>
      <trkpt lat="47.99254" lon="6.92608">
        <ele>1025</ele>
        <time>2021-08-19T13:56:56Z</time>
      </trkpt>
      <trkpt lat="47.99277" lon="6.9262">
        <ele>1020</ele>
        <time>2021-08-19T13:57:02Z</time>
      </trkpt>
      <trkpt lat="47.99263" lon="6.92583">
        <ele>1018</ele>
        <time>2021-08-19T13:57:09Z</time>
      </trkpt>
      <trkpt lat="47.99235" lon="6.92538">
        <ele>1024</ele>
        <time>2021-08-19T13:57:18Z</time>
      </trkpt>
      <trkpt lat="47.99295" lon="6.92547">
        <ele>1003</ele>
        <time>2021-08-19T13:57:32Z</time>
      </trkpt>
      <trkpt lat="47.99345" lon="6.92577">
        <ele>993</ele>
        <time>2021-08-19T13:57:45Z</time>
      </trkpt>
      <trkpt lat="47.99369" lon="6.92603">
        <ele>990</ele>
        <time>2021-08-19T13:57:52Z</time>
      </trkpt>
      <trkpt lat="47.99427" lon="6.92694">
        <ele>986</ele>
        <time>2021-08-19T13:58:12Z</time>
      </trkpt>
      <trkpt lat="47.99568" lon="6.92853">
        <ele>956</ele>
        <time>2021-08-19T13:58:53Z</time>
      </trkpt>
      <trkpt lat="47.99526" lon="6.92683">
        <ele>948</ele>
        <time>2021-08-19T13:59:21Z</time>
      </trkpt>
      <trkpt lat="47.99495" lon="6.92616">
        <ele>945</ele>
        <time>2021-08-19T13:59:34Z</time>
      </trkpt>
      <trkpt lat="47.99475" lon="6.92521">
        <ele>935</ele>
        <time>2021-08-19T13:59:49Z</time>
      </trkpt>
      <trkpt lat="47.99447" lon="6.92463">
        <ele>940</ele>
        <time>2021-08-19T14:00:01Z</time>
      </trkpt>
      <trkpt lat="47.99681" lon="6.92694">
        <ele>896</ele>
        <time>2021-08-19T14:01:06Z</time>
      </trkpt>
      <trkpt lat="47.99793" lon="6.92871">
        <ele>872</ele>
        <time>2021-08-19T14:01:44Z</time>
      </trkpt>
      <trkpt lat="47.9981" lon="6.92915">
        <ele>869</ele>
        <time>2021-08-19T14:01:52Z</time>
      </trkpt>
      <trkpt lat="47.99815" lon="6.92954">
        <ele>867</ele>
        <time>2021-08-19T14:01:58Z</time>
      </trkpt>
      <trkpt lat="47.99824" lon="6.9293">
        <ele>863</ele>
        <time>2021-08-19T14:02:03Z</time>
      </trkpt>
      <trkpt lat="47.99834" lon="6.92941">
        <ele>859</ele>
        <time>2021-08-19T14:02:05Z</time>
      </trkpt>
      <trkpt lat="47.99842" lon="6.92917">
        <ele>854</ele>
        <time>2021-08-19T14:02:10Z</time>
      </trkpt>
      <trkpt lat="47.99846" lon="6.93003">
        <ele>852</ele>
        <time>2021-08-19T14:02:23Z</time>
      </trkpt>
      <trkpt lat="47.99815" lon="6.93082">
        <ele>850</ele>
        <time>2021-08-19T14:02:37Z</time>
      </trkpt>
      <trkpt lat="47.99795" lon="6.93153">
        <ele>838</ele>
        <time>2021-08-19T14:02:50Z</time>
      </trkpt>
      <trkpt lat="47.99825" lon="6.93113">
        <ele>838</ele>
        <time>2021-08-19T14:02:59Z</time>
      </trkpt>
      <trkpt lat="47.99804" lon="6.93257">
        <ele>822</ele>
        <time>2021-08-19T14:03:22Z</time>
      </trkpt>
      <trkpt lat="47.99842" lon="6.93259">
        <ele>812</ele>
        <time>2021-08-19T14:03:31Z</time>
      </trkpt>
      <trkpt lat="47.99879" lon="6.93183">
        <ele>805</ele>
        <time>2021-08-19T14:03:45Z</time>
      </trkpt>
      <trkpt lat="47.99914" lon="6.93149">
        <ele>795</ele>
        <time>2021-08-19T14:03:55Z</time>
      </trkpt>
      <trkpt lat="47.99943" lon="6.93082">
        <ele>793</ele>
        <time>2021-08-19T14:04:08Z</time>
      </trkpt>
      <trkpt lat="47.99977" lon="6.93016">
        <ele>788</ele>
        <time>2021-08-19T14:04:21Z</time>
      </trkpt>
      <trkpt lat="48.00002" lon="6.92928">
        <ele>777</ele>
        <time>2021-08-19T14:04:36Z</time>
      </trkpt>
      <trkpt lat="48.00012" lon="6.92861">
        <ele>767</ele>
        <time>2021-08-19T14:04:46Z</time>
      </trkpt>
      <trkpt lat="48.00005" lon="6.92796">
        <ele>762</ele>
        <time>2021-08-19T14:04:57Z</time>
      </trkpt>
      <trkpt lat="48.0001" lon="6.92779">
        <ele>758</ele>
        <time>2021-08-19T14:05:00Z</time>
      </trkpt>
      <trkpt lat="48.00124" lon="6.92984">
        <ele>745</ele>
        <time>2021-08-19T14:05:41Z</time>
      </trkpt>
      <trkpt lat="48.00154" lon="6.93023">
        <ele>743</ele>
        <time>2021-08-19T14:05:51Z</time>
      </trkpt>
      <trkpt lat="48.00185" lon="6.93038">
        <ele>740</ele>
        <time>2021-08-19T14:05:58Z</time>
      </trkpt>
      <trkpt lat="48.00231" lon="6.93042">
        <ele>735</ele>
        <time>2021-08-19T14:06:09Z</time>
      </trkpt>
      <trkpt lat="48.00256" lon="6.93069">
        <ele>735</ele>
        <time>2021-08-19T14:06:16Z</time>
      </trkpt>
      <trkpt lat="48.00282" lon="6.93079">
        <ele>734</ele>
        <time>2021-08-19T14:06:22Z</time>
      </trkpt>
      <trkpt lat="48.00278" lon="6.93158">
        <ele>741</ele>
        <time>2021-08-19T14:06:35Z</time>
      </trkpt>
      <trkpt lat="48.00279" lon="6.93281">
        <ele>746</ele>
        <time>2021-08-19T14:06:54Z</time>
      </trkpt>
      <trkpt lat="48.00282" lon="6.93356">
        <ele>747</ele>
        <time>2021-08-19T14:07:06Z</time>
      </trkpt>
      <trkpt lat="48.00291" lon="6.93406">
        <ele>747</ele>
        <time>2021-08-19T14:07:14Z</time>
      </trkpt>
      <trkpt lat="48.00355" lon="6.93472">
        <ele>740</ele>
        <time>2021-08-19T14:07:32Z</time>
      </trkpt>
      <trkpt lat="48.0037" lon="6.9351">
        <ele>741</ele>
        <time>2021-08-19T14:07:39Z</time>
      </trkpt>
      <trkpt lat="48.00376" lon="6.93565">
        <ele>746</ele>
        <time>2021-08-19T14:07:48Z</time>
      </trkpt>
      <trkpt lat="48.00384" lon="6.93612">
        <ele>748</ele>
        <time>2021-08-19T14:07:55Z</time>
      </trkpt>
      <trkpt lat="48.00417" lon="6.93699">
        <ele>745</ele>
        <time>2021-08-19T14:08:11Z</time>
      </trkpt>
      <trkpt lat="48.00435" lon="6.93728">
        <ele>747</ele>
        <time>2021-08-19T14:08:17Z</time>
      </trkpt>
      <trkpt lat="48.00475" lon="6.93763">
        <ele>747</ele>
        <time>2021-08-19T14:08:28Z</time>
      </trkpt>
      <trkpt lat="48.0051" lon="6.93781">
        <ele>746</ele>
        <time>2021-08-19T14:08:36Z</time>
      </trkpt>
      <trkpt lat="48.00562" lon="6.93847">
        <ele>746</ele>
        <time>2021-08-19T14:08:52Z</time>
      </trkpt>
      <trkpt lat="48.00609" lon="6.93898">
        <ele>746</ele>
        <time>2021-08-19T14:09:06Z</time>
      </trkpt>
      <trkpt lat="48.00626" lon="6.9391">
        <ele>746</ele>
        <time>2021-08-19T14:09:10Z</time>
      </trkpt>
      <trkpt lat="48.00646" lon="6.93912">
        <ele>744</ele>
        <time>2021-08-19T14:09:15Z</time>
      </trkpt>
      <trkpt lat="48.00652" lon="6.93975">
        <ele>751</ele>
        <time>2021-08-19T14:09:25Z</time>
      </trkpt>
      <trkpt lat="48.00674" lon="6.94014">
        <ele>754</ele>
        <time>2021-08-19T14:09:33Z</time>
      </trkpt>
      <trkpt lat="48.00663" lon="6.94028">
        <ele>757</ele>
        <time>2021-08-19T14:09:36Z</time>
      </trkpt>
      <trkpt lat="48.00635" lon="6.94004">
        <ele>757</ele>
        <time>2021-08-19T14:09:44Z</time>
      </trkpt>
      <trkpt lat="48.006" lon="6.94004">
        <ele>763</ele>
        <time>2021-08-19T14:09:52Z</time>
      </trkpt>
      <trkpt lat="48.00608" lon="6.94036">
        <ele>765</ele>
        <time>2021-08-19T14:09:57Z</time>
      </trkpt>
      <trkpt lat="48.0059" lon="6.94104">
        <ele>777</ele>
        <time>2021-08-19T14:10:09Z</time>
      </trkpt>
      <trkpt lat="48.00568" lon="6.94099">
        <ele>782</ele>
        <time>2021-08-19T14:10:14Z</time>
      </trkpt>
      <trkpt lat="48.00523" lon="6.94055">
        <ele>790</ele>
        <time>2021-08-19T14:10:26Z</time>
      </trkpt>
      <trkpt lat="48.00507" lon="6.94004">
        <ele>791</ele>
        <time>2021-08-19T14:10:35Z</time>
      </trkpt>
      <trkpt lat="48.00496" lon="6.93998">
        <ele>793</ele>
        <time>2021-08-19T14:10:38Z</time>
      </trkpt>
      <trkpt lat="48.00497" lon="6.94028">
        <ele>796</ele>
        <time>2021-08-19T14:10:43Z</time>
      </trkpt>
      <trkpt lat="48.00488" lon="6.94075">
        <ele>802</ele>
        <time>2021-08-19T14:10:50Z</time>
      </trkpt>
      <trkpt lat="48.00467" lon="6.94089">
        <ele>808</ele>
        <time>2021-08-19T14:10:56Z</time>
      </trkpt>
      <trkpt lat="48.0043" lon="6.94073">
        <ele>813</ele>
        <time>2021-08-19T14:11:05Z</time>
      </trkpt>
      <trkpt lat="48.00411" lon="6.9407">
        <ele>816</ele>
        <time>2021-08-19T14:11:09Z</time>
      </trkpt>
      <trkpt lat="48.00391" lon="6.94062">
        <ele>820</ele>
        <time>2021-08-19T14:11:14Z</time>
      </trkpt>
      <trkpt lat="48.00358" lon="6.94031">
        <ele>821</ele>
        <time>2021-08-19T14:11:23Z</time>
      </trkpt>
      <trkpt lat="48.00384" lon="6.94073">
        <ele>823</ele>
        <time>2021-08-19T14:11:32Z</time>
      </trkpt>
      <trkpt lat="48.00381" lon="6.94086">
        <ele>826</ele>
        <time>2021-08-19T14:11:34Z</time>
      </trkpt>
      <trkpt lat="48.00351" lon="6.94074">
        <ele>831</ele>
        <time>2021-08-19T14:11:41Z</time>
      </trkpt>
      <trkpt lat="48.00308" lon="6.9404">
        <ele>835</ele>
        <time>2021-08-19T14:11:53Z</time>
      </trkpt>
      <trkpt lat="48.00295" lon="6.94012">
        <ele>832</ele>
        <time>2021-08-19T14:11:58Z</time>
      </trkpt>
      <trkpt lat="48.00282" lon="6.93997">
        <ele>831</ele>
        <time>2021-08-19T14:12:02Z</time>
      </trkpt>
      <trkpt lat="48.00272" lon="6.93999">
        <ele>834</ele>
        <time>2021-08-19T14:12:04Z</time>
      </trkpt>
      <trkpt lat="48.00267" lon="6.94013">
        <ele>839</ele>
        <time>2021-08-19T14:12:07Z</time>
      </trkpt>
      <trkpt lat="48.00273" lon="6.94048">
        <ele>846</ele>
        <time>2021-08-19T14:12:12Z</time>
      </trkpt>
      <trkpt lat="48.00297" lon="6.94108">
        <ele>854</ele>
        <time>2021-08-19T14:12:23Z</time>
      </trkpt>
      <trkpt lat="48.00297" lon="6.94125">
        <ele>859</ele>
        <time>2021-08-19T14:12:26Z</time>
      </trkpt>
      <trkpt lat="48.00266" lon="6.94108">
        <ele>865</ele>
        <time>2021-08-19T14:12:34Z</time>
      </trkpt>
      <trkpt lat="48.0027" lon="6.9413">
        <ele>870</ele>
        <time>2021-08-19T14:12:37Z</time>
      </trkpt>
      <trkpt lat="48.0031" lon="6.94169">
        <ele>864</ele>
        <time>2021-08-19T14:12:48Z</time>
      </trkpt>
      <trkpt lat="48.00287" lon="6.9417">
        <ele>874</ele>
        <time>2021-08-19T14:12:54Z</time>
      </trkpt>
      <trkpt lat="48.00258" lon="6.94152">
        <ele>880</ele>
        <time>2021-08-19T14:13:01Z</time>
      </trkpt>
      <trkpt lat="48.00218" lon="6.94104">
        <ele>880</ele>
        <time>2021-08-19T14:13:13Z</time>
      </trkpt>
      <trkpt lat="48.00208" lon="6.94103">
        <ele>884</ele>
        <time>2021-08-19T14:13:15Z</time>
      </trkpt>
      <trkpt lat="48.00254" lon="6.94201">
        <ele>892</ele>
        <time>2021-08-19T14:13:34Z</time>
      </trkpt>
      <trkpt lat="48.00277" lon="6.94262">
        <ele>896</ele>
        <time>2021-08-19T14:13:45Z</time>
      </trkpt>
      <trkpt lat="48.00311" lon="6.94309">
        <ele>900</ele>
        <time>2021-08-19T14:13:56Z</time>
      </trkpt>
      <trkpt lat="48.00299" lon="6.9432">
        <ele>905</ele>
        <time>2021-08-19T14:13:59Z</time>
      </trkpt>
      <trkpt lat="48.00277" lon="6.94309">
        <ele>905</ele>
        <time>2021-08-19T14:14:05Z</time>
      </trkpt>
      <trkpt lat="48.0023" lon="6.9432">
        <ele>917</ele>
        <time>2021-08-19T14:14:16Z</time>
      </trkpt>
      <trkpt lat="48.00215" lon="6.94308">
        <ele>920</ele>
        <time>2021-08-19T14:14:20Z</time>
      </trkpt>
      <trkpt lat="48.00163" lon="6.94213">
        <ele>924</ele>
        <time>2021-08-19T14:14:39Z</time>
      </trkpt>
      <trkpt lat="48.00145" lon="6.9419">
        <ele>927</ele>
        <time>2021-08-19T14:14:44Z</time>
      </trkpt>
      <trkpt lat="48.00115" lon="6.94169">
        <ele>934</ele>
        <time>2021-08-19T14:14:52Z</time>
      </trkpt>
      <trkpt lat="48.0012" lon="6.94194">
        <ele>936</ele>
        <time>2021-08-19T14:14:56Z</time>
      </trkpt>
      <trkpt lat="48.00132" lon="6.94224">
        <ele>937</ele>
        <time>2021-08-19T14:15:02Z</time>
      </trkpt>
      <trkpt lat="48.00134" lon="6.9434">
        <ele>946</ele>
        <time>2021-08-19T14:15:20Z</time>
      </trkpt>
      <trkpt lat="48.00122" lon="6.94379">
        <ele>951</ele>
        <time>2021-08-19T14:15:27Z</time>
      </trkpt>
      <trkpt lat="48.00096" lon="6.94415">
        <ele>958</ele>
        <time>2021-08-19T14:15:35Z</time>
      </trkpt>
      <trkpt lat="48.00062" lon="6.94488">
        <ele>966</ele>
        <time>2021-08-19T14:15:49Z</time>
      </trkpt>
      <trkpt lat="48.00068" lon="6.94537">
        <ele>967</ele>
        <time>2021-08-19T14:15:57Z</time>
      </trkpt>
      <trkpt lat="48.00053" lon="6.94544">
        <ele>969</ele>
        <time>2021-08-19T14:16:00Z</time>
      </trkpt>
      <trkpt lat="48.00057" lon="6.94562">
        <ele>970</ele>
        <time>2021-08-19T14:16:03Z</time>
      </trkpt>
      <trkpt lat="48.00069" lon="6.94569">
        <ele>970</ele>
        <time>2021-08-19T14:16:06Z</time>
      </trkpt>
      <trkpt lat="48.00091" lon="6.94605">
        <ele>977</ele>
        <time>2021-08-19T14:16:14Z</time>
      </trkpt>
      <trkpt lat="48.00157" lon="6.94642">
        <ele>985</ele>
        <time>2021-08-19T14:16:30Z</time>
      </trkpt>
      <trkpt lat="48.00221" lon="6.9465">
        <ele>984</ele>
        <time>2021-08-19T14:16:45Z</time>
      </trkpt>
      <trkpt lat="48.00253" lon="6.9468">
        <ele>991</ele>
        <time>2021-08-19T14:16:54Z</time>
      </trkpt>
      <trkpt lat="48.00291" lon="6.9469">
        <ele>994</ele>
        <time>2021-08-19T14:17:03Z</time>
      </trkpt>
      <trkpt lat="48.00382" lon="6.94664">
        <ele>987</ele>
        <time>2021-08-19T14:17:25Z</time>
      </trkpt>
      <trkpt lat="48.0041" lon="6.94643">
        <ele>979</ele>
        <time>2021-08-19T14:17:32Z</time>
      </trkpt>
      <trkpt lat="48.00472" lon="6.94629">
        <ele>972</ele>
        <time>2021-08-19T14:17:47Z</time>
      </trkpt>
      <trkpt lat="48.00527" lon="6.94635">
        <ele>971</ele>
        <time>2021-08-19T14:18:00Z</time>
      </trkpt>
      <trkpt lat="48.00564" lon="6.9467">
        <ele>978</ele>
        <time>2021-08-19T14:18:10Z</time>
      </trkpt>
      <trkpt lat="48.00622" lon="6.94676">
        <ele>968</ele>
        <time>2021-08-19T14:18:23Z</time>
      </trkpt>
      <trkpt lat="48.00682" lon="6.94716">
        <ele>968</ele>
        <time>2021-08-19T14:18:39Z</time>
      </trkpt>
      <trkpt lat="48.00737" lon="6.94722">
        <ele>958</ele>
        <time>2021-08-19T14:18:52Z</time>
      </trkpt>
      <trkpt lat="48.00791" lon="6.9475">
        <ele>955</ele>
        <time>2021-08-19T14:19:05Z</time>
      </trkpt>
      <trkpt lat="48.00831" lon="6.94753">
        <ele>946</ele>
        <time>2021-08-19T14:19:14Z</time>
      </trkpt>
      <trkpt lat="48.00882" lon="6.94766">
        <ele>938</ele>
        <time>2021-08-19T14:19:26Z</time>
      </trkpt>
      <trkpt lat="48.00956" lon="6.94813">
        <ele>935</ele>
        <time>2021-08-19T14:19:45Z</time>
      </trkpt>
      <trkpt lat="48.01039" lon="6.94861">
        <ele>929</ele>
        <time>2021-08-19T14:20:06Z</time>
      </trkpt>
      <trkpt lat="48.01054" lon="6.94854">
        <ele>925</ele>
        <time>2021-08-19T14:20:10Z</time>
      </trkpt>
      <trkpt lat="48.01063" lon="6.94908">
        <ele>929</ele>
        <time>2021-08-19T14:20:18Z</time>
      </trkpt>
      <trkpt lat="48.01045" lon="6.94964">
        <ele>936</ele>
        <time>2021-08-19T14:20:28Z</time>
      </trkpt>
      <trkpt lat="48.00977" lon="6.95082">
        <ele>962</ele>
        <time>2021-08-19T14:20:52Z</time>
      </trkpt>
      <trkpt lat="48.00959" lon="6.95123">
        <ele>969</ele>
        <time>2021-08-19T14:21:00Z</time>
      </trkpt>
      <trkpt lat="48.00953" lon="6.95194">
        <ele>970</ele>
        <time>2021-08-19T14:21:11Z</time>
      </trkpt>
      <trkpt lat="48.00955" lon="6.95304">
        <ele>973</ele>
        <time>2021-08-19T14:21:28Z</time>
      </trkpt>
      <trkpt lat="48.00967" lon="6.95374">
        <ele>973</ele>
        <time>2021-08-19T14:21:40Z</time>
      </trkpt>
      <trkpt lat="48.00981" lon="6.95427">
        <ele>971</ele>
        <time>2021-08-19T14:21:49Z</time>
      </trkpt>
      <trkpt lat="48.00982" lon="6.95547">
        <ele>978</ele>
        <time>2021-08-19T14:22:07Z</time>
      </trkpt>
      <trkpt lat="48.01" lon="6.95619">
        <ele>977</ele>
        <time>2021-08-19T14:22:19Z</time>
      </trkpt>
      <trkpt lat="48.01012" lon="6.95657">
        <ele>980</ele>
        <time>2021-08-19T14:22:26Z</time>
      </trkpt>
      <trkpt lat="48.01021" lon="6.95653">
        <ele>982</ele>
        <time>2021-08-19T14:22:28Z</time>
      </trkpt>
      <trkpt lat="48.0104" lon="6.9567">
        <ele>986</ele>
        <time>2021-08-19T14:22:33Z</time>
      </trkpt>
      <trkpt lat="48.01064" lon="6.95662">
        <ele>989</ele>
        <time>2021-08-19T14:22:39Z</time>
      </trkpt>
      <trkpt lat="48.01144" lon="6.95608">
        <ele>1003</ele>
        <time>2021-08-19T14:22:59Z</time>
      </trkpt>
      <trkpt lat="48.01205" lon="6.95539">
        <ele>1008</ele>
        <time>2021-08-19T14:23:17Z</time>
      </trkpt>
      <trkpt lat="48.01233" lon="6.95515">
        <ele>1010</ele>
        <time>2021-08-19T14:23:25Z</time>
      </trkpt>
      <trkpt lat="48.01258" lon="6.95508">
        <ele>1015</ele>
        <time>2021-08-19T14:23:31Z</time>
      </trkpt>
      <trkpt lat="48.01402" lon="6.95485">
        <ele>1037</ele>
        <time>2021-08-19T14:24:05Z</time>
      </trkpt>
      <trkpt lat="48.01442" lon="6.9551">
        <ele>1042</ele>
        <time>2021-08-19T14:24:15Z</time>
      </trkpt>
      <trkpt lat="48.01482" lon="6.95553">
        <ele>1046</ele>
        <time>2021-08-19T14:24:26Z</time>
      </trkpt>
      <trkpt lat="48.01538" lon="6.95696">
        <ele>1056</ele>
        <time>2021-08-19T14:24:52Z</time>
      </trkpt>
      <trkpt lat="48.01557" lon="6.95754">
        <ele>1058</ele>
        <time>2021-08-19T14:25:02Z</time>
      </trkpt>
      <trkpt lat="48.01559" lon="6.95959">
        <ele>1072</ele>
        <time>2021-08-19T14:25:34Z</time>
      </trkpt>
      <trkpt lat="48.0155" lon="6.96016">
        <ele>1076</ele>
        <time>2021-08-19T14:25:43Z</time>
      </trkpt>
      <trkpt lat="48.0149" lon="6.96128">
        <ele>1089</ele>
        <time>2021-08-19T14:26:06Z</time>
      </trkpt>
      <trkpt lat="48.01461" lon="6.96173">
        <ele>1094</ele>
        <time>2021-08-19T14:26:16Z</time>
      </trkpt>
      <trkpt lat="48.01432" lon="6.9623">
        <ele>1097</ele>
        <time>2021-08-19T14:26:27Z</time>
      </trkpt>
      <trkpt lat="48.01415" lon="6.96312">
        <ele>1102</ele>
        <time>2021-08-19T14:26:40Z</time>
      </trkpt>
      <trkpt lat="48.01386" lon="6.96403">
        <ele>1106</ele>
        <time>2021-08-19T14:26:56Z</time>
      </trkpt>
      <trkpt lat="48.01377" lon="6.96473">
        <ele>1107</ele>
        <time>2021-08-19T14:27:07Z</time>
      </trkpt>
      <trkpt lat="48.01374" lon="6.96532">
        <ele>1109</ele>
        <time>2021-08-19T14:27:16Z</time>
      </trkpt>
      <trkpt lat="48.01381" lon="6.96621">
        <ele>1112</ele>
        <time>2021-08-19T14:27:30Z</time>
      </trkpt>
      <trkpt lat="48.01367" lon="6.96704">
        <ele>1117</ele>
        <time>2021-08-19T14:27:44Z</time>
      </trkpt>
      <trkpt lat="48.01358" lon="6.96797">
        <ele>1125</ele>
        <time>2021-08-19T14:27:58Z</time>
      </trkpt>
      <trkpt lat="48.01384" lon="6.96837">
        <ele>1127</ele>
        <time>2021-08-19T14:28:07Z</time>
      </trkpt>
      <trkpt lat="48.01429" lon="6.96857">
        <ele>1124</ele>
        <time>2021-08-19T14:28:18Z</time>
      </trkpt>
      <trkpt lat="48.01493" lon="6.96922">
        <ele>1119</ele>
        <time>2021-08-19T14:28:36Z</time>
      </trkpt>
      <trkpt lat="48.01528" lon="6.96972">
        <ele>1114</ele>
        <time>2021-08-19T14:28:47Z</time>
      </trkpt>
      <trkpt lat="48.0156" lon="6.97027">
        <ele>1110</ele>
        <time>2021-08-19T14:28:59Z</time>
      </trkpt>
      <trkpt lat="48.01612" lon="6.97142">
        <ele>1092</ele>
        <time>2021-08-19T14:29:20Z</time>
      </trkpt>
      <trkpt lat="48.01614" lon="6.97175">
        <ele>1089</ele>
        <time>2021-08-19T14:29:26Z</time>
      </trkpt>
      <trkpt lat="48.01604" lon="6.97197">
        <ele>1089</ele>
        <time>2021-08-19T14:29:30Z</time>
      </trkpt>
      <trkpt lat="48.01543" lon="6.97232">
        <ele>1101</ele>
        <time>2021-08-19T14:29:45Z</time>
      </trkpt>
      <trkpt lat="48.01519" lon="6.97272">
        <ele>1100</ele>
        <time>2021-08-19T14:29:53Z</time>
      </trkpt>
      <trkpt lat="48.01502" lon="6.97329">
        <ele>1092</ele>
        <time>2021-08-19T14:30:03Z</time>
      </trkpt>
      <trkpt lat="48.01471" lon="6.97359">
        <ele>1094</ele>
        <time>2021-08-19T14:30:12Z</time>
      </trkpt>
      <trkpt lat="48.01433" lon="6.97431">
        <ele>1084</ele>
        <time>2021-08-19T14:30:26Z</time>
      </trkpt>
      <trkpt lat="48.01397" lon="6.97451">
        <ele>1088</ele>
        <time>2021-08-19T14:30:35Z</time>
      </trkpt>
      <trkpt lat="48.01369" lon="6.97498">
        <ele>1084</ele>
        <time>2021-08-19T14:30:45Z</time>
      </trkpt>
      <trkpt lat="48.01302" lon="6.97563">
        <ele>1086</ele>
        <time>2021-08-19T14:31:04Z</time>
      </trkpt>
      <trkpt lat="48.01283" lon="6.97604">
        <ele>1084</ele>
        <time>2021-08-19T14:31:11Z</time>
      </trkpt>
      <trkpt lat="48.01262" lon="6.97626">
        <ele>1087</ele>
        <time>2021-08-19T14:31:17Z</time>
      </trkpt>
      <trkpt lat="48.01251" lon="6.97815">
        <ele>1093</ele>
        <time>2021-08-19T14:31:47Z</time>
      </trkpt>
      <trkpt lat="48.0131" lon="6.97817">
        <ele>1074</ele>
        <time>2021-08-19T14:32:01Z</time>
      </trkpt>
      <trkpt lat="48.01415" lon="6.97853">
        <ele>1047</ele>
        <time>2021-08-19T14:32:26Z</time>
      </trkpt>
      <trkpt lat="48.01424" lon="6.97884">
        <ele>1047</ele>
        <time>2021-08-19T14:32:31Z</time>
      </trkpt>
      <trkpt lat="48.01526" lon="6.97961">
        <ele>1026</ele>
        <time>2021-08-19T14:32:58Z</time>
      </trkpt>
      <trkpt lat="48.0158" lon="6.97969">
        <ele>1016</ele>
        <time>2021-08-19T14:33:11Z</time>
      </trkpt>
      <trkpt lat="48.0161" lon="6.97937">
        <ele>1008</ele>
        <time>2021-08-19T14:33:19Z</time>
      </trkpt>
      <trkpt lat="48.01657" lon="6.9794">
        <ele>999</ele>
        <time>2021-08-19T14:33:30Z</time>
      </trkpt>
      <trkpt lat="48.01699" lon="6.97967">
        <ele>1000</ele>
        <time>2021-08-19T14:33:41Z</time>
      </trkpt>
      <trkpt lat="48.01732" lon="6.97966">
        <ele>998</ele>
        <time>2021-08-19T14:33:49Z</time>
      </trkpt>
      <trkpt lat="48.01757" lon="6.97947">
        <ele>995</ele>
        <time>2021-08-19T14:33:55Z</time>
      </trkpt>
      <trkpt lat="48.01789" lon="6.97889">
        <ele>995</ele>
        <time>2021-08-19T14:34:07Z</time>
      </trkpt>
      <trkpt lat="48.01807" lon="6.97825">
        <ele>996</ele>
        <time>2021-08-19T14:34:18Z</time>
      </trkpt>
      <trkpt lat="48.01819" lon="6.97837">
        <ele>998</ele>
        <time>2021-08-19T14:34:21Z</time>
      </trkpt>
      <trkpt lat="48.01844" lon="6.97815">
        <ele>1000</ele>
        <time>2021-08-19T14:34:28Z</time>
      </trkpt>
      <trkpt lat="48.01885" lon="6.97802">
        <ele>1003</ele>
        <time>2021-08-19T14:34:38Z</time>
      </trkpt>
      <trkpt lat="48.01907" lon="6.97779">
        <ele>1004</ele>
        <time>2021-08-19T14:34:44Z</time>
      </trkpt>
      <trkpt lat="48.01919" lon="6.97742">
        <ele>1004</ele>
        <time>2021-08-19T14:34:50Z</time>
      </trkpt>
      <trkpt lat="48.0193" lon="6.97636">
        <ele>999</ele>
        <time>2021-08-19T14:35:07Z</time>
      </trkpt>
      <trkpt lat="48.0195" lon="6.97504">
        <ele>1001</ele>
        <time>2021-08-19T14:35:28Z</time>
      </trkpt>
      <trkpt lat="48.01976" lon="6.97471">
        <ele>1004</ele>
        <time>2021-08-19T14:35:36Z</time>
      </trkpt>
      <trkpt lat="48.01968" lon="6.97526">
        <ele>1006</ele>
        <time>2021-08-19T14:35:45Z</time>
      </trkpt>
      <trkpt lat="48.0198" lon="6.97615">
        <ele>1010</ele>
        <time>2021-08-19T14:35:59Z</time>
      </trkpt>
      <trkpt lat="48.01997" lon="6.97658">
        <ele>1013</ele>
        <time>2021-08-19T14:36:07Z</time>
      </trkpt>
      <trkpt lat="48.02103" lon="6.97278">
        <ele>1045</ele>
        <time>2021-08-19T14:37:11Z</time>
      </trkpt>
      <trkpt lat="48.02156" lon="6.97117">
        <ele>1055</ele>
        <time>2021-08-19T14:37:39Z</time>
      </trkpt>
      <trkpt lat="48.02222" lon="6.97014">
        <ele>1052</ele>
        <time>2021-08-19T14:38:02Z</time>
      </trkpt>
      <trkpt lat="48.02276" lon="6.97036">
        <ele>1069</ele>
        <time>2021-08-19T14:38:15Z</time>
      </trkpt>
      <trkpt lat="48.02325" lon="6.97079">
        <ele>1087</ele>
        <time>2021-08-19T14:38:28Z</time>
      </trkpt>
      <trkpt lat="48.02357" lon="6.97032">
        <ele>1079</ele>
        <time>2021-08-19T14:38:38Z</time>
      </trkpt>
      <trkpt lat="48.02401" lon="6.96991">
        <ele>1078</ele>
        <time>2021-08-19T14:38:51Z</time>
      </trkpt>
      <trkpt lat="48.02447" lon="6.96983">
        <ele>1081</ele>
        <time>2021-08-19T14:39:01Z</time>
      </trkpt>
      <trkpt lat="48.02488" lon="6.96996">
        <ele>1088</ele>
        <time>2021-08-19T14:39:11Z</time>
      </trkpt>
      <trkpt lat="48.02528" lon="6.97025">
        <ele>1095</ele>
        <time>2021-08-19T14:39:22Z</time>
      </trkpt>
      <trkpt lat="48.02667" lon="6.97162">
        <ele>1121</ele>
        <time>2021-08-19T14:40:00Z</time>
      </trkpt>
      <trkpt lat="48.02719" lon="6.97144">
        <ele>1110</ele>
        <time>2021-08-19T14:40:13Z</time>
      </trkpt>
      <trkpt lat="48.02753" lon="6.97158">
        <ele>1112</ele>
        <time>2021-08-19T14:40:21Z</time>
      </trkpt>
      <trkpt lat="48.02796" lon="6.97218">
        <ele>1126</ele>
        <time>2021-08-19T14:40:35Z</time>
      </trkpt>
      <trkpt lat="48.0282" lon="6.97209">
        <ele>1123</ele>
        <time>2021-08-19T14:40:41Z</time>
      </trkpt>
      <trkpt lat="48.02906" lon="6.97083">
        <ele>1111</ele>
        <time>2021-08-19T14:41:09Z</time>
      </trkpt>
      <trkpt lat="48.03" lon="6.96974">
        <ele>1105</ele>
        <time>2021-08-19T14:41:37Z</time>
      </trkpt>
      <trkpt lat="48.03053" lon="6.96974">
        <ele>1101</ele>
        <time>2021-08-19T14:41:49Z</time>
      </trkpt>
      <trkpt lat="48.03086" lon="6.97011">
        <ele>1106</ele>
        <time>2021-08-19T14:41:59Z</time>
      </trkpt>
      <trkpt lat="48.03109" lon="6.97021">
        <ele>1104</ele>
        <time>2021-08-19T14:42:04Z</time>
      </trkpt>
      <trkpt lat="48.0317" lon="6.97148">
        <ele>1118</ele>
        <time>2021-08-19T14:42:29Z</time>
      </trkpt>
      <trkpt lat="48.03201" lon="6.97263">
        <ele>1118</ele>
        <time>2021-08-19T14:42:48Z</time>
      </trkpt>
      <trkpt lat="48.03198" lon="6.97413">
        <ele>1120</ele>
        <time>2021-08-19T14:43:11Z</time>
      </trkpt>
      <trkpt lat="48.03236" lon="6.97609">
        <ele>1097</ele>
        <time>2021-08-19T14:43:43Z</time>
      </trkpt>
      <trkpt lat="48.03272" lon="6.97731">
        <ele>1081</ele>
        <time>2021-08-19T14:44:04Z</time>
      </trkpt>
      <trkpt lat="48.03261" lon="6.97755">
        <ele>1082</ele>
        <time>2021-08-19T14:44:09Z</time>
      </trkpt>
      <trkpt lat="48.03236" lon="6.97796">
        <ele>1081</ele>
        <time>2021-08-19T14:44:17Z</time>
      </trkpt>
      <trkpt lat="48.03277" lon="6.97799">
        <ele>1071</ele>
        <time>2021-08-19T14:44:27Z</time>
      </trkpt>
      <trkpt lat="48.03304" lon="6.97785">
        <ele>1070</ele>
        <time>2021-08-19T14:44:34Z</time>
      </trkpt>
      <trkpt lat="48.03369" lon="6.97772">
        <ele>1061</ele>
        <time>2021-08-19T14:44:49Z</time>
      </trkpt>
      <trkpt lat="48.03426" lon="6.97849">
        <ele>1061</ele>
        <time>2021-08-19T14:45:07Z</time>
      </trkpt>
      <trkpt lat="48.03398" lon="6.97909">
        <ele>1063</ele>
        <time>2021-08-19T14:45:18Z</time>
      </trkpt>
      <trkpt lat="48.03378" lon="6.98026">
        <ele>1067</ele>
        <time>2021-08-19T14:45:37Z</time>
      </trkpt>
      <trkpt lat="48.03368" lon="6.98114">
        <ele>1070</ele>
        <time>2021-08-19T14:45:51Z</time>
      </trkpt>
      <trkpt lat="48.03371" lon="6.98194">
        <ele>1077</ele>
        <time>2021-08-19T14:46:03Z</time>
      </trkpt>
      <trkpt lat="48.03351" lon="6.98283">
        <ele>1082</ele>
        <time>2021-08-19T14:46:18Z</time>
      </trkpt>
      <trkpt lat="48.03355" lon="6.98281">
        <ele>1083</ele>
        <time>2021-08-19T14:46:19Z</time>
      </trkpt>
      <trkpt lat="48.03301" lon="6.98425">
        <ele>1091</ele>
        <time>2021-08-19T14:46:45Z</time>
      </trkpt>
      <trkpt lat="48.03191" lon="6.98684">
        <ele>1108</ele>
        <time>2021-08-19T14:47:33Z</time>
      </trkpt>
      <trkpt lat="48.03157" lon="6.98784">
        <ele>1114</ele>
        <time>2021-08-19T14:47:50Z</time>
      </trkpt>
      <trkpt lat="48.03128" lon="6.98851">
        <ele>1116</ele>
        <time>2021-08-19T14:48:03Z</time>
      </trkpt>
      <trkpt lat="48.0312" lon="6.98876">
        <ele>1117</ele>
        <time>2021-08-19T14:48:07Z</time>
      </trkpt>
      <trkpt lat="48.0312" lon="6.9893">
        <ele>1125</ele>
        <time>2021-08-19T14:48:16Z</time>
      </trkpt>
      <trkpt lat="48.03107" lon="6.98955">
        <ele>1128</ele>
        <time>2021-08-19T14:48:21Z</time>
      </trkpt>
      <trkpt lat="48.03075" lon="6.98969">
        <ele>1126</ele>
        <time>2021-08-19T14:48:28Z</time>
      </trkpt>
      <trkpt lat="48.03019" lon="6.99027">
        <ele>1130</ele>
        <time>2021-08-19T14:48:44Z</time>
      </trkpt>
      <trkpt lat="48.02981" lon="6.99058">
        <ele>1131</ele>
        <time>2021-08-19T14:48:54Z</time>
      </trkpt>
      <trkpt lat="48.02964" lon="6.99076">
        <ele>1131</ele>
        <time>2021-08-19T14:48:59Z</time>
      </trkpt>
      <trkpt lat="48.02959" lon="6.99098">
        <ele>1133</ele>
        <time>2021-08-19T14:49:03Z</time>
      </trkpt>
      <trkpt lat="48.0296" lon="6.99137">
        <ele>1137</ele>
        <time>2021-08-19T14:49:09Z</time>
      </trkpt>
      <trkpt lat="48.02966" lon="6.99161">
        <ele>1141</ele>
        <time>2021-08-19T14:49:13Z</time>
      </trkpt>
      <trkpt lat="48.0298" lon="6.992">
        <ele>1146</ele>
        <time>2021-08-19T14:49:20Z</time>
      </trkpt>
      <trkpt lat="48.02986" lon="6.99225">
        <ele>1149</ele>
        <time>2021-08-19T14:49:24Z</time>
      </trkpt>
      <trkpt lat="48.02989" lon="6.99252">
        <ele>1151</ele>
        <time>2021-08-19T14:49:28Z</time>
      </trkpt>
      <trkpt lat="48.02987" lon="6.99321">
        <ele>1158</ele>
        <time>2021-08-19T14:49:39Z</time>
      </trkpt>
      <trkpt lat="48.02974" lon="6.99421">
        <ele>1168</ele>
        <time>2021-08-19T14:49:55Z</time>
      </trkpt>
      <trkpt lat="48.02978" lon="6.99437">
        <ele>1171</ele>
        <time>2021-08-19T14:49:58Z</time>
      </trkpt>
      <trkpt lat="48.02966" lon="6.99477">
        <ele>1175</ele>
        <time>2021-08-19T14:50:04Z</time>
      </trkpt>
      <trkpt lat="48.02962" lon="6.99512">
        <ele>1178</ele>
        <time>2021-08-19T14:50:10Z</time>
      </trkpt>
      <trkpt lat="48.02962" lon="6.99744">
        <ele>1195</ele>
        <time>2021-08-19T14:50:46Z</time>
      </trkpt>
      <trkpt lat="48.02988" lon="6.99904">
        <ele>1201</ele>
        <time>2021-08-19T14:51:12Z</time>
      </trkpt>
      <trkpt lat="48.03044" lon="6.99584">
        <ele>1203</ele>
        <time>2021-08-19T14:52:04Z</time>
      </trkpt>
      <trkpt lat="48.03064" lon="6.99494">
        <ele>1200</ele>
        <time>2021-08-19T14:52:18Z</time>
      </trkpt>
      <trkpt lat="48.03099" lon="6.99395">
        <ele>1196</ele>
        <time>2021-08-19T14:52:36Z</time>
      </trkpt>
      <trkpt lat="48.03128" lon="6.99382">
        <ele>1196</ele>
        <time>2021-08-19T14:52:43Z</time>
      </trkpt>
      <trkpt lat="48.03154" lon="6.99404">
        <ele>1201</ele>
        <time>2021-08-19T14:52:50Z</time>
      </trkpt>
      <trkpt lat="48.03301" lon="6.99461">
        <ele>1210</ele>
        <time>2021-08-19T14:53:25Z</time>
      </trkpt>
      <trkpt lat="48.03341" lon="6.995">
        <ele>1214</ele>
        <time>2021-08-19T14:53:37Z</time>
      </trkpt>
      <trkpt lat="48.03366" lon="6.99579">
        <ele>1220</ele>
        <time>2021-08-19T14:53:50Z</time>
      </trkpt>
      <trkpt lat="48.03398" lon="6.99718">
        <ele>1230</ele>
        <time>2021-08-19T14:54:13Z</time>
      </trkpt>
      <trkpt lat="48.03421" lon="6.99872">
        <ele>1234</ele>
        <time>2021-08-19T14:54:38Z</time>
      </trkpt>
      <trkpt lat="48.03423" lon="6.99948">
        <ele>1234</ele>
        <time>2021-08-19T14:54:50Z</time>
      </trkpt>
      <trkpt lat="48.03407" lon="7.00002">
        <ele>1237</ele>
        <time>2021-08-19T14:54:59Z</time>
      </trkpt>
      <trkpt lat="48.03417" lon="7.00044">
        <ele>1238</ele>
        <time>2021-08-19T14:55:06Z</time>
      </trkpt>
      <trkpt lat="48.03422" lon="7.00078">
        <ele>1238</ele>
        <time>2021-08-19T14:55:11Z</time>
      </trkpt>
      <trkpt lat="48.0342" lon="7.00215">
        <ele>1242</ele>
        <time>2021-08-19T14:55:33Z</time>
      </trkpt>
      <trkpt lat="48.03433" lon="7.00309">
        <ele>1242</ele>
        <time>2021-08-19T14:55:48Z</time>
      </trkpt>
      <trkpt lat="48.03436" lon="7.00391">
        <ele>1245</ele>
        <time>2021-08-19T14:56:01Z</time>
      </trkpt>
      <trkpt lat="48.03444" lon="7.00486">
        <ele>1248</ele>
        <time>2021-08-19T14:56:15Z</time>
      </trkpt>
      <trkpt lat="48.03464" lon="7.00562">
        <ele>1249</ele>
        <time>2021-08-19T14:56:28Z</time>
      </trkpt>
      <trkpt lat="48.03508" lon="7.00669">
        <ele>1249</ele>
        <time>2021-08-19T14:56:48Z</time>
      </trkpt>
      <trkpt lat="48.03563" lon="7.00761">
        <ele>1246</ele>
        <time>2021-08-19T14:57:07Z</time>
      </trkpt>
      <trkpt lat="48.03601" lon="7.0079">
        <ele>1244</ele>
        <time>2021-08-19T14:57:17Z</time>
      </trkpt>
      <trkpt lat="48.03704" lon="7.00789">
        <ele>1240</ele>
        <time>2021-08-19T14:57:41Z</time>
      </trkpt>
      <trkpt lat="48.03755" lon="7.00802">
        <ele>1239</ele>
        <time>2021-08-19T14:57:53Z</time>
      </trkpt>
      <trkpt lat="48.03779" lon="7.00804">
        <ele>1239</ele>
        <time>2021-08-19T14:57:59Z</time>
      </trkpt>
      <trkpt lat="48.03876" lon="7.008">
        <ele>1238</ele>
        <time>2021-08-19T14:58:22Z</time>
      </trkpt>
      <trkpt lat="48.03939" lon="7.00782">
        <ele>1239</ele>
        <time>2021-08-19T14:58:36Z</time>
      </trkpt>
      <trkpt lat="48.03964" lon="7.00759">
        <ele>1239</ele>
        <time>2021-08-19T14:58:43Z</time>
      </trkpt>
      <trkpt lat="48.0401" lon="7.00664">
        <ele>1236</ele>
        <time>2021-08-19T14:59:02Z</time>
      </trkpt>
      <trkpt lat="48.0403" lon="7.00629">
        <ele>1236</ele>
        <time>2021-08-19T14:59:09Z</time>
      </trkpt>
      <trkpt lat="48.04099" lon="7.00541">
        <ele>1237</ele>
        <time>2021-08-19T14:59:30Z</time>
      </trkpt>
      <trkpt lat="48.04111" lon="7.00514">
        <ele>1235</ele>
        <time>2021-08-19T14:59:35Z</time>
      </trkpt>
      <trkpt lat="48.04155" lon="7.00436">
        <ele>1227</ele>
        <time>2021-08-19T14:59:51Z</time>
      </trkpt>
      <trkpt lat="48.04218" lon="7.00354">
        <ele>1214</ele>
        <time>2021-08-19T15:00:11Z</time>
      </trkpt>
      <trkpt lat="48.04237" lon="7.00324">
        <ele>1208</ele>
        <time>2021-08-19T15:00:17Z</time>
      </trkpt>
      <trkpt lat="48.04266" lon="7.00302">
        <ele>1202</ele>
        <time>2021-08-19T15:00:25Z</time>
      </trkpt>
      <trkpt lat="48.04307" lon="7.00304">
        <ele>1197</ele>
        <time>2021-08-19T15:00:34Z</time>
      </trkpt>
      <trkpt lat="48.04297" lon="7.00279">
        <ele>1193</ele>
        <time>2021-08-19T15:00:39Z</time>
      </trkpt>
      <trkpt lat="48.04296" lon="7.00216">
        <ele>1182</ele>
        <time>2021-08-19T15:00:49Z</time>
      </trkpt>
      <trkpt lat="48.04314" lon="7.00193">
        <ele>1177</ele>
        <time>2021-08-19T15:00:54Z</time>
      </trkpt>
      <trkpt lat="48.04337" lon="7.00196">
        <ele>1174</ele>
        <time>2021-08-19T15:00:59Z</time>
      </trkpt>
      <trkpt lat="48.0433" lon="7.00158">
        <ele>1170</ele>
        <time>2021-08-19T15:01:06Z</time>
      </trkpt>
      <trkpt lat="48.04318" lon="7.00121">
        <ele>1167</ele>
        <time>2021-08-19T15:01:12Z</time>
      </trkpt>
      <trkpt lat="48.0429" lon="7.00094">
        <ele>1165</ele>
        <time>2021-08-19T15:01:20Z</time>
      </trkpt>
      <trkpt lat="48.04304" lon="7.00084">
        <ele>1163</ele>
        <time>2021-08-19T15:01:23Z</time>
      </trkpt>
      <trkpt lat="48.04294" lon="7.0004">
        <ele>1153</ele>
        <time>2021-08-19T15:01:31Z</time>
      </trkpt>
      <trkpt lat="48.04288" lon="7.00031">
        <ele>1151</ele>
        <time>2021-08-19T15:01:33Z</time>
      </trkpt>
      <trkpt lat="48.04276" lon="7.00024">
        <ele>1151</ele>
        <time>2021-08-19T15:01:36Z</time>
      </trkpt>
      <trkpt lat="48.04269" lon="7">
        <ele>1146</ele>
        <time>2021-08-19T15:01:40Z</time>
      </trkpt>
      <trkpt lat="48.04257" lon="6.99984">
        <ele>1143</ele>
        <time>2021-08-19T15:01:44Z</time>
      </trkpt>
      <trkpt lat="48.04193" lon="6.99956">
        <ele>1132</ele>
        <time>2021-08-19T15:01:59Z</time>
      </trkpt>
      <trkpt lat="48.04157" lon="6.99933">
        <ele>1124</ele>
        <time>2021-08-19T15:02:08Z</time>
      </trkpt>
      <trkpt lat="48.04128" lon="6.99935">
        <ele>1123</ele>
        <time>2021-08-19T15:02:15Z</time>
      </trkpt>
      <trkpt lat="48.04129" lon="6.9987">
        <ele>1116</ele>
        <time>2021-08-19T15:02:25Z</time>
      </trkpt>
      <trkpt lat="48.0411" lon="6.99849">
        <ele>1113</ele>
        <time>2021-08-19T15:02:31Z</time>
      </trkpt>
      <trkpt lat="48.0411" lon="6.99832">
        <ele>1112</ele>
        <time>2021-08-19T15:02:33Z</time>
      </trkpt>
      <trkpt lat="48.04118" lon="6.9978">
        <ele>1117</ele>
        <time>2021-08-19T15:02:42Z</time>
      </trkpt>
      <trkpt lat="48.04114" lon="6.99759">
        <ele>1118</ele>
        <time>2021-08-19T15:02:45Z</time>
      </trkpt>
      <trkpt lat="48.04096" lon="6.99741">
        <ele>1116</ele>
        <time>2021-08-19T15:02:50Z</time>
      </trkpt>
      <trkpt lat="48.04091" lon="6.99724">
        <ele>1115</ele>
        <time>2021-08-19T15:02:53Z</time>
      </trkpt>
      <trkpt lat="48.04105" lon="6.99706">
        <ele>1119</ele>
        <time>2021-08-19T15:02:57Z</time>
      </trkpt>
      <trkpt lat="48.04125" lon="6.99699">
        <ele>1125</ele>
        <time>2021-08-19T15:03:02Z</time>
      </trkpt>
      <trkpt lat="48.04132" lon="6.99683">
        <ele>1129</ele>
        <time>2021-08-19T15:03:05Z</time>
      </trkpt>
      <trkpt lat="48.04091" lon="6.99616">
        <ele>1121</ele>
        <time>2021-08-19T15:03:19Z</time>
      </trkpt>
      <trkpt lat="48.04086" lon="6.99574">
        <ele>1123</ele>
        <time>2021-08-19T15:03:26Z</time>
      </trkpt>
      <trkpt lat="48.04093" lon="6.99468">
        <ele>1128</ele>
        <time>2021-08-19T15:03:43Z</time>
      </trkpt>
      <trkpt lat="48.04089" lon="6.99313">
        <ele>1127</ele>
        <time>2021-08-19T15:04:07Z</time>
      </trkpt>
      <trkpt lat="48.04101" lon="6.99127">
        <ele>1123</ele>
        <time>2021-08-19T15:04:36Z</time>
      </trkpt>
      <trkpt lat="48.041" lon="6.99042">
        <ele>1123</ele>
        <time>2021-08-19T15:04:49Z</time>
      </trkpt>
      <trkpt lat="48.04076" lon="6.99016">
        <ele>1120</ele>
        <time>2021-08-19T15:04:56Z</time>
      </trkpt>
      <trkpt lat="48.04035" lon="6.98989">
        <ele>1113</ele>
        <time>2021-08-19T15:05:07Z</time>
      </trkpt>
      <trkpt lat="48.03987" lon="6.989">
        <ele>1112</ele>
        <time>2021-08-19T15:05:25Z</time>
      </trkpt>
      <trkpt lat="48.03972" lon="6.98691">
        <ele>1110</ele>
        <time>2021-08-19T15:05:57Z</time>
      </trkpt>
      <trkpt lat="48.03939" lon="6.98435">
        <ele>1093</ele>
        <time>2021-08-19T15:06:38Z</time>
      </trkpt>
      <trkpt lat="48.0394" lon="6.98393">
        <ele>1090</ele>
        <time>2021-08-19T15:06:45Z</time>
      </trkpt>
      <trkpt lat="48.03955" lon="6.98312">
        <ele>1086</ele>
        <time>2021-08-19T15:06:58Z</time>
      </trkpt>
      <trkpt lat="48.03953" lon="6.98301">
        <ele>1084</ele>
        <time>2021-08-19T15:07:00Z</time>
      </trkpt>
      <trkpt lat="48.03987" lon="6.98248">
        <ele>1088</ele>
        <time>2021-08-19T15:07:11Z</time>
      </trkpt>
      <trkpt lat="48.04012" lon="6.97989">
        <ele>1072</ele>
        <time>2021-08-19T15:07:52Z</time>
      </trkpt>
      <trkpt lat="48.04034" lon="6.97882">
        <ele>1064</ele>
        <time>2021-08-19T15:08:09Z</time>
      </trkpt>
      <trkpt lat="48.04044" lon="6.97854">
        <ele>1062</ele>
        <time>2021-08-19T15:08:14Z</time>
      </trkpt>
      <trkpt lat="48.04055" lon="6.97842">
        <ele>1062</ele>
        <time>2021-08-19T15:08:17Z</time>
      </trkpt>
      <trkpt lat="48.0409" lon="6.97823">
        <ele>1061</ele>
        <time>2021-08-19T15:08:26Z</time>
      </trkpt>
      <trkpt lat="48.04135" lon="6.9782">
        <ele>1060</ele>
        <time>2021-08-19T15:08:37Z</time>
      </trkpt>
      <trkpt lat="48.04271" lon="6.9785">
        <ele>1058</ele>
        <time>2021-08-19T15:09:09Z</time>
      </trkpt>
      <trkpt lat="48.04345" lon="6.97856">
        <ele>1052</ele>
        <time>2021-08-19T15:09:26Z</time>
      </trkpt>
      <trkpt lat="48.04418" lon="6.9784">
        <ele>1038</ele>
        <time>2021-08-19T15:09:43Z</time>
      </trkpt>
      <trkpt lat="48.04506" lon="6.9784">
        <ele>1030</ele>
        <time>2021-08-19T15:10:04Z</time>
      </trkpt>
      <trkpt lat="48.0455" lon="6.97825">
        <ele>1022</ele>
        <time>2021-08-19T15:10:14Z</time>
      </trkpt>
      <trkpt lat="48.04603" lon="6.97828">
        <ele>1019</ele>
        <time>2021-08-19T15:10:27Z</time>
      </trkpt>
      <trkpt lat="48.04627" lon="6.97832">
        <ele>1019</ele>
        <time>2021-08-19T15:10:32Z</time>
      </trkpt>
      <trkpt lat="48.04631" lon="6.97816">
        <ele>1015</ele>
        <time>2021-08-19T15:10:35Z</time>
      </trkpt>
      <trkpt lat="48.04606" lon="6.97806">
        <ele>1013</ele>
        <time>2021-08-19T15:10:41Z</time>
      </trkpt>
      <trkpt lat="48.04571" lon="6.97783">
        <ele>1008</ele>
        <time>2021-08-19T15:10:50Z</time>
      </trkpt>
      <trkpt lat="48.04549" lon="6.97764">
        <ele>1005</ele>
        <time>2021-08-19T15:10:56Z</time>
      </trkpt>
      <trkpt lat="48.04624" lon="6.97749">
        <ele>997</ele>
        <time>2021-08-19T15:11:14Z</time>
      </trkpt>
      <trkpt lat="48.04643" lon="6.97719">
        <ele>989</ele>
        <time>2021-08-19T15:11:20Z</time>
      </trkpt>
      <trkpt lat="48.04648" lon="6.97707">
        <ele>986</ele>
        <time>2021-08-19T15:11:22Z</time>
      </trkpt>
      <trkpt lat="48.04667" lon="6.97692">
        <ele>982</ele>
        <time>2021-08-19T15:11:27Z</time>
      </trkpt>
      <trkpt lat="48.04705" lon="6.97689">
        <ele>980</ele>
        <time>2021-08-19T15:11:36Z</time>
      </trkpt>
      <trkpt lat="48.04738" lon="6.97658">
        <ele>973</ele>
        <time>2021-08-19T15:11:45Z</time>
      </trkpt>
      <trkpt lat="48.04746" lon="6.97643">
        <ele>970</ele>
        <time>2021-08-19T15:11:48Z</time>
      </trkpt>
      <trkpt lat="48.04749" lon="6.97625">
        <ele>966</ele>
        <time>2021-08-19T15:11:51Z</time>
      </trkpt>
      <trkpt lat="48.04707" lon="6.97592">
        <ele>959</ele>
        <time>2021-08-19T15:12:02Z</time>
      </trkpt>
      <trkpt lat="48.04699" lon="6.97576">
        <ele>956</ele>
        <time>2021-08-19T15:12:05Z</time>
      </trkpt>
      <trkpt lat="48.047" lon="6.97565">
        <ele>954</ele>
        <time>2021-08-19T15:12:07Z</time>
      </trkpt>
      <trkpt lat="48.04735" lon="6.97569">
        <ele>957</ele>
        <time>2021-08-19T15:12:15Z</time>
      </trkpt>
      <trkpt lat="48.0476" lon="6.97581">
        <ele>959</ele>
        <time>2021-08-19T15:12:21Z</time>
      </trkpt>
      <trkpt lat="48.04785" lon="6.97449">
        <ele>963</ele>
        <time>2021-08-19T15:12:43Z</time>
      </trkpt>
      <trkpt lat="48.04784" lon="6.97363">
        <ele>971</ele>
        <time>2021-08-19T15:12:56Z</time>
      </trkpt>
      <trkpt lat="48.04766" lon="6.97324">
        <ele>971</ele>
        <time>2021-08-19T15:13:04Z</time>
      </trkpt>
      <trkpt lat="48.04743" lon="6.97282">
        <ele>972</ele>
        <time>2021-08-19T15:13:12Z</time>
      </trkpt>
      <trkpt lat="48.0472" lon="6.97197">
        <ele>977</ele>
        <time>2021-08-19T15:13:27Z</time>
      </trkpt>
      <trkpt lat="48.04733" lon="6.97127">
        <ele>985</ele>
        <time>2021-08-19T15:13:38Z</time>
      </trkpt>
      <trkpt lat="48.04734" lon="6.97089">
        <ele>986</ele>
        <time>2021-08-19T15:13:44Z</time>
      </trkpt>
      <trkpt lat="48.04724" lon="6.97011">
        <ele>990</ele>
        <time>2021-08-19T15:13:56Z</time>
      </trkpt>
      <trkpt lat="48.04707" lon="6.96925">
        <ele>994</ele>
        <time>2021-08-19T15:14:10Z</time>
      </trkpt>
      <trkpt lat="48.04705" lon="6.96901">
        <ele>995</ele>
        <time>2021-08-19T15:14:14Z</time>
      </trkpt>
      <trkpt lat="48.04706" lon="6.96859">
        <ele>998</ele>
        <time>2021-08-19T15:14:21Z</time>
      </trkpt>
      <trkpt lat="48.04728" lon="6.96809">
        <ele>998</ele>
        <time>2021-08-19T15:14:30Z</time>
      </trkpt>
      <trkpt lat="48.04728" lon="6.96847">
        <ele>998</ele>
        <time>2021-08-19T15:14:36Z</time>
      </trkpt>
      <trkpt lat="48.04756" lon="6.96863">
        <ele>997</ele>
        <time>2021-08-19T15:14:43Z</time>
      </trkpt>
      <trkpt lat="48.0479" lon="6.96863">
        <ele>1003</ele>
        <time>2021-08-19T15:14:51Z</time>
      </trkpt>
      <trkpt lat="48.04824" lon="6.96842">
        <ele>1008</ele>
        <time>2021-08-19T15:14:59Z</time>
      </trkpt>
      <trkpt lat="48.04849" lon="6.96765">
        <ele>1009</ele>
        <time>2021-08-19T15:15:13Z</time>
      </trkpt>
      <trkpt lat="48.0486" lon="6.96706">
        <ele>1009</ele>
        <time>2021-08-19T15:15:22Z</time>
      </trkpt>
      <trkpt lat="48.04887" lon="6.96627">
        <ele>1012</ele>
        <time>2021-08-19T15:15:36Z</time>
      </trkpt>
      <trkpt lat="48.0491" lon="6.9657">
        <ele>1014</ele>
        <time>2021-08-19T15:15:47Z</time>
      </trkpt>
      <trkpt lat="48.04931" lon="6.96546">
        <ele>1017</ele>
        <time>2021-08-19T15:15:53Z</time>
      </trkpt>
      <trkpt lat="48.04948" lon="6.96549">
        <ele>1021</ele>
        <time>2021-08-19T15:15:57Z</time>
      </trkpt>
      <trkpt lat="48.0498" lon="6.96496">
        <ele>1023</ele>
        <time>2021-08-19T15:16:08Z</time>
      </trkpt>
      <trkpt lat="48.05033" lon="6.96442">
        <ele>1034</ele>
        <time>2021-08-19T15:16:23Z</time>
      </trkpt>
      <trkpt lat="48.05045" lon="6.96422">
        <ele>1037</ele>
        <time>2021-08-19T15:16:27Z</time>
      </trkpt>
      <trkpt lat="48.05066" lon="6.96336">
        <ele>1042</ele>
        <time>2021-08-19T15:16:41Z</time>
      </trkpt>
      <trkpt lat="48.0508" lon="6.96304">
        <ele>1046</ele>
        <time>2021-08-19T15:16:47Z</time>
      </trkpt>
      <trkpt lat="48.05118" lon="6.96255">
        <ele>1051</ele>
        <time>2021-08-19T15:16:59Z</time>
      </trkpt>
      <trkpt lat="48.0512" lon="6.9624">
        <ele>1051</ele>
        <time>2021-08-19T15:17:01Z</time>
      </trkpt>
      <trkpt lat="48.05095" lon="6.96107">
        <ele>1053</ele>
        <time>2021-08-19T15:17:23Z</time>
      </trkpt>
      <trkpt lat="48.05122" lon="6.96011">
        <ele>1058</ele>
        <time>2021-08-19T15:17:39Z</time>
      </trkpt>
      <trkpt lat="48.05151" lon="6.95948">
        <ele>1060</ele>
        <time>2021-08-19T15:17:51Z</time>
      </trkpt>
      <trkpt lat="48.05198" lon="6.95886">
        <ele>1065</ele>
        <time>2021-08-19T15:18:06Z</time>
      </trkpt>
      <trkpt lat="48.05247" lon="6.95847">
        <ele>1070</ele>
        <time>2021-08-19T15:18:19Z</time>
      </trkpt>
      <trkpt lat="48.05292" lon="6.95827">
        <ele>1068</ele>
        <time>2021-08-19T15:18:30Z</time>
      </trkpt>
      <trkpt lat="48.05354" lon="6.95756">
        <ele>1072</ele>
        <time>2021-08-19T15:18:48Z</time>
      </trkpt>
      <trkpt lat="48.05387" lon="6.95747">
        <ele>1075</ele>
        <time>2021-08-19T15:18:56Z</time>
      </trkpt>
      <trkpt lat="48.05422" lon="6.95704">
        <ele>1080</ele>
        <time>2021-08-19T15:19:06Z</time>
      </trkpt>
      <trkpt lat="48.05421" lon="6.95646">
        <ele>1082</ele>
        <time>2021-08-19T15:19:15Z</time>
      </trkpt>
      <trkpt lat="48.05456" lon="6.95619">
        <ele>1086</ele>
        <time>2021-08-19T15:19:25Z</time>
      </trkpt>
      <trkpt lat="48.05478" lon="6.95619">
        <ele>1087</ele>
        <time>2021-08-19T15:19:30Z</time>
      </trkpt>
      <trkpt lat="48.05516" lon="6.95587">
        <ele>1087</ele>
        <time>2021-08-19T15:19:40Z</time>
      </trkpt>
      <trkpt lat="48.05549" lon="6.95576">
        <ele>1086</ele>
        <time>2021-08-19T15:19:48Z</time>
      </trkpt>
      <trkpt lat="48.05586" lon="6.95603">
        <ele>1081</ele>
        <time>2021-08-19T15:19:57Z</time>
      </trkpt>
      <trkpt lat="48.05635" lon="6.95613">
        <ele>1079</ele>
        <time>2021-08-19T15:20:09Z</time>
      </trkpt>
      <trkpt lat="48.05661" lon="6.95586">
        <ele>1078</ele>
        <time>2021-08-19T15:20:16Z</time>
      </trkpt>
      <trkpt lat="48.05719" lon="6.9547">
        <ele>1068</ele>
        <time>2021-08-19T15:20:39Z</time>
      </trkpt>
      <trkpt lat="48.0572" lon="6.9543">
        <ele>1067</ele>
        <time>2021-08-19T15:20:45Z</time>
      </trkpt>
      <trkpt lat="48.05729" lon="6.954">
        <ele>1064</ele>
        <time>2021-08-19T15:20:50Z</time>
      </trkpt>
      <trkpt lat="48.05729" lon="6.95368">
        <ele>1064</ele>
        <time>2021-08-19T15:20:55Z</time>
      </trkpt>
      <trkpt lat="48.05751" lon="6.95344">
        <ele>1056</ele>
        <time>2021-08-19T15:21:02Z</time>
      </trkpt>
      <trkpt lat="48.05754" lon="6.95321">
        <ele>1054</ele>
        <time>2021-08-19T15:21:05Z</time>
      </trkpt>
      <trkpt lat="48.05752" lon="6.95274">
        <ele>1049</ele>
        <time>2021-08-19T15:21:13Z</time>
      </trkpt>
      <trkpt lat="48.0573" lon="6.95126">
        <ele>1041</ele>
        <time>2021-08-19T15:21:36Z</time>
      </trkpt>
      <trkpt lat="48.05726" lon="6.95084">
        <ele>1038</ele>
        <time>2021-08-19T15:21:43Z</time>
      </trkpt>
      <trkpt lat="48.05732" lon="6.95039">
        <ele>1033</ele>
        <time>2021-08-19T15:21:50Z</time>
      </trkpt>
      <trkpt lat="48.05707" lon="6.94969">
        <ele>1031</ele>
        <time>2021-08-19T15:22:03Z</time>
      </trkpt>
      <trkpt lat="48.05668" lon="6.94916">
        <ele>1025</ele>
        <time>2021-08-19T15:22:15Z</time>
      </trkpt>
      <trkpt lat="48.05663" lon="6.94903">
        <ele>1023</ele>
        <time>2021-08-19T15:22:17Z</time>
      </trkpt>
      <trkpt lat="48.05656" lon="6.94866">
        <ele>1017</ele>
        <time>2021-08-19T15:22:23Z</time>
      </trkpt>
      <trkpt lat="48.05663" lon="6.94793">
        <ele>1008</ele>
        <time>2021-08-19T15:22:35Z</time>
      </trkpt>
      <trkpt lat="48.05663" lon="6.94769">
        <ele>1005</ele>
        <time>2021-08-19T15:22:38Z</time>
      </trkpt>
      <trkpt lat="48.05657" lon="6.94767">
        <ele>1004</ele>
        <time>2021-08-19T15:22:40Z</time>
      </trkpt>
      <trkpt lat="48.05652" lon="6.94737">
        <ele>997</ele>
        <time>2021-08-19T15:22:45Z</time>
      </trkpt>
      <trkpt lat="48.05653" lon="6.94684">
        <ele>987</ele>
        <time>2021-08-19T15:22:53Z</time>
      </trkpt>
      <trkpt lat="48.05713" lon="6.94473">
        <ele>952</ele>
        <time>2021-08-19T15:23:29Z</time>
      </trkpt>
      <trkpt lat="48.05691" lon="6.94287">
        <ele>947</ele>
        <time>2021-08-19T15:23:58Z</time>
      </trkpt>
      <trkpt lat="48.05613" lon="6.94219">
        <ele>952</ele>
        <time>2021-08-19T15:24:19Z</time>
      </trkpt>
      <trkpt lat="48.05526" lon="6.94108">
        <ele>960</ele>
        <time>2021-08-19T15:24:46Z</time>
      </trkpt>
      <trkpt lat="48.055" lon="6.94046">
        <ele>964</ele>
        <time>2021-08-19T15:24:57Z</time>
      </trkpt>
      <trkpt lat="48.05486" lon="6.94042">
        <ele>962</ele>
        <time>2021-08-19T15:25:01Z</time>
      </trkpt>
      <trkpt lat="48.05408" lon="6.9391">
        <ele>960</ele>
        <time>2021-08-19T15:25:28Z</time>
      </trkpt>
      <trkpt lat="48.05363" lon="6.93864">
        <ele>955</ele>
        <time>2021-08-19T15:25:41Z</time>
      </trkpt>
      <trkpt lat="48.05316" lon="6.9379">
        <ele>950</ele>
        <time>2021-08-19T15:25:57Z</time>
      </trkpt>
      <trkpt lat="48.05282" lon="6.93681">
        <ele>956</ele>
        <time>2021-08-19T15:26:16Z</time>
      </trkpt>
      <trkpt lat="48.05251" lon="6.93634">
        <ele>955</ele>
        <time>2021-08-19T15:26:26Z</time>
      </trkpt>
      <trkpt lat="48.05237" lon="6.93577">
        <ele>959</ele>
        <time>2021-08-19T15:26:36Z</time>
      </trkpt>
      <trkpt lat="48.05233" lon="6.93543">
        <ele>962</ele>
        <time>2021-08-19T15:26:41Z</time>
      </trkpt>
      <trkpt lat="48.05212" lon="6.93473">
        <ele>961</ele>
        <time>2021-08-19T15:26:53Z</time>
      </trkpt>
      <trkpt lat="48.05211" lon="6.93371">
        <ele>966</ele>
        <time>2021-08-19T15:27:09Z</time>
      </trkpt>
      <trkpt lat="48.05199" lon="6.93279">
        <ele>962</ele>
        <time>2021-08-19T15:27:23Z</time>
      </trkpt>
      <trkpt lat="48.05203" lon="6.93204">
        <ele>967</ele>
        <time>2021-08-19T15:27:35Z</time>
      </trkpt>
      <trkpt lat="48.05197" lon="6.93182">
        <ele>966</ele>
        <time>2021-08-19T15:27:39Z</time>
      </trkpt>
      <trkpt lat="48.05177" lon="6.93138">
        <ele>964</ele>
        <time>2021-08-19T15:27:47Z</time>
      </trkpt>
      <trkpt lat="48.05113" lon="6.93018">
        <ele>967</ele>
        <time>2021-08-19T15:28:11Z</time>
      </trkpt>
      <trkpt lat="48.05009" lon="6.92875">
        <ele>972</ele>
        <time>2021-08-19T15:28:44Z</time>
      </trkpt>
      <trkpt lat="48.04962" lon="6.9283">
        <ele>975</ele>
        <time>2021-08-19T15:28:57Z</time>
      </trkpt>
      <trkpt lat="48.04854" lon="6.92757">
        <ele>979</ele>
        <time>2021-08-19T15:29:25Z</time>
      </trkpt>
      <trkpt lat="48.04806" lon="6.92748">
        <ele>977</ele>
        <time>2021-08-19T15:29:36Z</time>
      </trkpt>
      <trkpt lat="48.04798" lon="6.92733">
        <ele>978</ele>
        <time>2021-08-19T15:29:39Z</time>
      </trkpt>
      <trkpt lat="48.04815" lon="6.92728">
        <ele>979</ele>
        <time>2021-08-19T15:29:43Z</time>
      </trkpt>
      <trkpt lat="48.04809" lon="6.9267">
        <ele>985</ele>
        <time>2021-08-19T15:29:52Z</time>
      </trkpt>
      <trkpt lat="48.0482" lon="6.92621">
        <ele>995</ele>
        <time>2021-08-19T15:30:00Z</time>
      </trkpt>
      <trkpt lat="48.04816" lon="6.92527">
        <ele>1010</ele>
        <time>2021-08-19T15:30:15Z</time>
      </trkpt>
      <trkpt lat="48.04787" lon="6.92408">
        <ele>1019</ele>
        <time>2021-08-19T15:30:35Z</time>
      </trkpt>
      <trkpt lat="48.0477" lon="6.92238">
        <ele>1043</ele>
        <time>2021-08-19T15:31:02Z</time>
      </trkpt>
      <trkpt lat="48.04772" lon="6.92165">
        <ele>1055</ele>
        <time>2021-08-19T15:31:13Z</time>
      </trkpt>
      <trkpt lat="48.04712" lon="6.92081">
        <ele>1060</ele>
        <time>2021-08-19T15:31:32Z</time>
      </trkpt>
      <trkpt lat="48.04642" lon="6.92065">
        <ele>1061</ele>
        <time>2021-08-19T15:31:49Z</time>
      </trkpt>
      <trkpt lat="48.04592" lon="6.92093">
        <ele>1054</ele>
        <time>2021-08-19T15:32:01Z</time>
      </trkpt>
      <trkpt lat="48.04531" lon="6.92088">
        <ele>1069</ele>
        <time>2021-08-19T15:32:16Z</time>
      </trkpt>
      <trkpt lat="48.04489" lon="6.9213">
        <ele>1070</ele>
        <time>2021-08-19T15:32:27Z</time>
      </trkpt>
      <trkpt lat="48.0444" lon="6.92153">
        <ele>1072</ele>
        <time>2021-08-19T15:32:39Z</time>
      </trkpt>
      <trkpt lat="48.0439" lon="6.92148">
        <ele>1074</ele>
        <time>2021-08-19T15:32:51Z</time>
      </trkpt>
      <trkpt lat="48.04328" lon="6.9204">
        <ele>1081</ele>
        <time>2021-08-19T15:33:13Z</time>
      </trkpt>
      <trkpt lat="48.04421" lon="6.92052">
        <ele>1094</ele>
        <time>2021-08-19T15:33:35Z</time>
      </trkpt>
      <trkpt lat="48.04496" lon="6.91951">
        <ele>1112</ele>
        <time>2021-08-19T15:33:59Z</time>
      </trkpt>
      <trkpt lat="48.04481" lon="6.91906">
        <ele>1118</ele>
        <time>2021-08-19T15:34:07Z</time>
      </trkpt>
      <trkpt lat="48.0461" lon="6.91798">
        <ele>1124</ele>
        <time>2021-08-19T15:34:41Z</time>
      </trkpt>
      <trkpt lat="48.0464" lon="6.91747">
        <ele>1124</ele>
        <time>2021-08-19T15:34:52Z</time>
      </trkpt>
      <trkpt lat="48.04639" lon="6.91692">
        <ele>1126</ele>
        <time>2021-08-19T15:35:00Z</time>
      </trkpt>
      <trkpt lat="48.04573" lon="6.91716">
        <ele>1126</ele>
        <time>2021-08-19T15:35:16Z</time>
      </trkpt>
      <trkpt lat="48.04529" lon="6.91714">
        <ele>1123</ele>
        <time>2021-08-19T15:35:26Z</time>
      </trkpt>
      <trkpt lat="48.04488" lon="6.91734">
        <ele>1121</ele>
        <time>2021-08-19T15:35:37Z</time>
      </trkpt>
      <trkpt lat="48.04473" lon="6.91726">
        <ele>1120</ele>
        <time>2021-08-19T15:35:40Z</time>
      </trkpt>
      <trkpt lat="48.04456" lon="6.91708">
        <ele>1117</ele>
        <time>2021-08-19T15:35:45Z</time>
      </trkpt>
      <trkpt lat="48.04441" lon="6.91698">
        <ele>1115</ele>
        <time>2021-08-19T15:35:49Z</time>
      </trkpt>
      <trkpt lat="48.04395" lon="6.91692">
        <ele>1110</ele>
        <time>2021-08-19T15:36:00Z</time>
      </trkpt>
      <trkpt lat="48.04374" lon="6.91671">
        <ele>1107</ele>
        <time>2021-08-19T15:36:06Z</time>
      </trkpt>
      <trkpt lat="48.04328" lon="6.91643">
        <ele>1098</ele>
        <time>2021-08-19T15:36:17Z</time>
      </trkpt>
      <trkpt lat="48.04304" lon="6.91527">
        <ele>1085</ele>
        <time>2021-08-19T15:36:36Z</time>
      </trkpt>
      <trkpt lat="48.04214" lon="6.91427">
        <ele>1069</ele>
        <time>2021-08-19T15:37:02Z</time>
      </trkpt>
      <trkpt lat="48.04187" lon="6.91387">
        <ele>1064</ele>
        <time>2021-08-19T15:37:11Z</time>
      </trkpt>
      <trkpt lat="48.04184" lon="6.91332">
        <ele>1060</ele>
        <time>2021-08-19T15:37:20Z</time>
      </trkpt>
      <trkpt lat="48.04168" lon="6.91285">
        <ele>1056</ele>
        <time>2021-08-19T15:37:28Z</time>
      </trkpt>
      <trkpt lat="48.04132" lon="6.91354">
        <ele>1056</ele>
        <time>2021-08-19T15:37:42Z</time>
      </trkpt>
      <trkpt lat="48.04118" lon="6.91443">
        <ele>1060</ele>
        <time>2021-08-19T15:37:56Z</time>
      </trkpt>
      <trkpt lat="48.04098" lon="6.91515">
        <ele>1061</ele>
        <time>2021-08-19T15:38:08Z</time>
      </trkpt>
      <trkpt lat="48.04006" lon="6.91593">
        <ele>1062</ele>
        <time>2021-08-19T15:38:33Z</time>
      </trkpt>
      <trkpt lat="48.03966" lon="6.91588">
        <ele>1060</ele>
        <time>2021-08-19T15:38:42Z</time>
      </trkpt>
      <trkpt lat="48.03936" lon="6.91578">
        <ele>1059</ele>
        <time>2021-08-19T15:38:49Z</time>
      </trkpt>
      <trkpt lat="48.03912" lon="6.9158">
        <ele>1058</ele>
        <time>2021-08-19T15:38:55Z</time>
      </trkpt>
      <trkpt lat="48.03861" lon="6.91546">
        <ele>1054</ele>
        <time>2021-08-19T15:39:08Z</time>
      </trkpt>
      <trkpt lat="48.03836" lon="6.91481">
        <ele>1059</ele>
        <time>2021-08-19T15:39:20Z</time>
      </trkpt>
      <trkpt lat="48.03813" lon="6.91396">
        <ele>1061</ele>
        <time>2021-08-19T15:39:34Z</time>
      </trkpt>
      <trkpt lat="48.03769" lon="6.91356">
        <ele>1056</ele>
        <time>2021-08-19T15:39:46Z</time>
      </trkpt>
      <trkpt lat="48.03737" lon="6.91299">
        <ele>1058</ele>
        <time>2021-08-19T15:39:58Z</time>
      </trkpt>
      <trkpt lat="48.03685" lon="6.91221">
        <ele>1061</ele>
        <time>2021-08-19T15:40:15Z</time>
      </trkpt>
      <trkpt lat="48.03592" lon="6.91185">
        <ele>1057</ele>
        <time>2021-08-19T15:40:37Z</time>
      </trkpt>
      <trkpt lat="48.03514" lon="6.9112">
        <ele>1051</ele>
        <time>2021-08-19T15:40:58Z</time>
      </trkpt>
      <trkpt lat="48.03457" lon="6.91124">
        <ele>1040</ele>
        <time>2021-08-19T15:41:12Z</time>
      </trkpt>
      <trkpt lat="48.03399" lon="6.91102">
        <ele>1036</ele>
        <time>2021-08-19T15:41:26Z</time>
      </trkpt>
      <trkpt lat="48.03384" lon="6.91091">
        <ele>1035</ele>
        <time>2021-08-19T15:41:29Z</time>
      </trkpt>
      <trkpt lat="48.03302" lon="6.9106">
        <ele>1025</ele>
        <time>2021-08-19T15:41:49Z</time>
      </trkpt>
      <trkpt lat="48.03191" lon="6.90974">
        <ele>1004</ele>
        <time>2021-08-19T15:42:18Z</time>
      </trkpt>
      <trkpt lat="48.03163" lon="6.90923">
        <ele>1000</ele>
        <time>2021-08-19T15:42:29Z</time>
      </trkpt>
      <trkpt lat="48.03133" lon="6.90853">
        <ele>996</ele>
        <time>2021-08-19T15:42:42Z</time>
      </trkpt>
      <trkpt lat="48.03119" lon="6.90813">
        <ele>993</ele>
        <time>2021-08-19T15:42:49Z</time>
      </trkpt>
      <trkpt lat="48.0309" lon="6.90779">
        <ele>986</ele>
        <time>2021-08-19T15:42:57Z</time>
      </trkpt>
      <trkpt lat="48.03117" lon="6.90907">
        <ele>990</ele>
        <time>2021-08-19T15:43:18Z</time>
      </trkpt>
      <trkpt lat="48.03115" lon="6.91005">
        <ele>987</ele>
        <time>2021-08-19T15:43:34Z</time>
      </trkpt>
    </trkseg>
  </trk>
</gpx>